<?xml version="1.0" encoding="UTF-8" standalone="no" ?>
<gpx xmlns="http://www.topografix.com/GPX/1/1" xmlns:xsi="http://www.w3.org/2001/XMLSchema-instance" xsi:schemaLocation="http://www.topografix.com/GPX/1/1 http://www.topografix.com/GPX/1/1/gpx.xsd" version="1.1" creator="VisuGPX - https://www.visugpx.com">
  <metadata>
    <name>3eme parti 4000 marches </name>
  </metadata>
  <trk>
    <name><![CDATA[3eme parti 4000 marches _1]]></name>
    <trkseg>
      <trkpt lat="44.04555" lon="3.50742">
        <ele>1271</ele>
        <time>2022-03-28T21:35:12Z</time>
      </trkpt>
      <trkpt lat="44.04539" lon="3.50746">
        <ele>1270</ele>
        <time>2022-03-28T21:35:20Z</time>
      </trkpt>
      <trkpt lat="44.04475" lon="3.50758">
        <ele>1268</ele>
        <time>2022-03-28T21:35:53Z</time>
      </trkpt>
      <trkpt lat="44.04447" lon="3.50755">
        <ele>1267</ele>
        <time>2022-03-28T21:36:07Z</time>
      </trkpt>
      <trkpt lat="44.04409" lon="3.50743">
        <ele>1267</ele>
        <time>2022-03-28T21:36:26Z</time>
      </trkpt>
      <trkpt lat="44.04357" lon="3.50707">
        <ele>1269</ele>
        <time>2022-03-28T21:36:55Z</time>
      </trkpt>
      <trkpt lat="44.04328" lon="3.50689">
        <ele>1269</ele>
        <time>2022-03-28T21:37:11Z</time>
      </trkpt>
      <trkpt lat="44.04245" lon="3.50621">
        <ele>1268</ele>
        <time>2022-03-28T21:37:59Z</time>
      </trkpt>
      <trkpt lat="44.04185" lon="3.50527">
        <ele>1269</ele>
        <time>2022-03-28T21:38:45Z</time>
      </trkpt>
      <trkpt lat="44.04155" lon="3.50518">
        <ele>1268</ele>
        <time>2022-03-28T21:39:00Z</time>
      </trkpt>
      <trkpt lat="44.04134" lon="3.50504">
        <ele>1269</ele>
        <time>2022-03-28T21:39:12Z</time>
      </trkpt>
      <trkpt lat="44.04127" lon="3.50492">
        <ele>1271</ele>
        <time>2022-03-28T21:39:17Z</time>
      </trkpt>
      <trkpt lat="44.04117" lon="3.50479">
        <ele>1274</ele>
        <time>2022-03-28T21:39:24Z</time>
      </trkpt>
      <trkpt lat="44.04107" lon="3.50485">
        <ele>1272</ele>
        <time>2022-03-28T21:39:30Z</time>
      </trkpt>
      <trkpt lat="44.04083" lon="3.50483">
        <ele>1272</ele>
        <time>2022-03-28T21:39:42Z</time>
      </trkpt>
      <trkpt lat="44.04079" lon="3.50486">
        <ele>1272</ele>
        <time>2022-03-28T21:39:44Z</time>
      </trkpt>
      <trkpt lat="44.04034" lon="3.50476">
        <ele>1277</ele>
        <time>2022-03-28T21:40:07Z</time>
      </trkpt>
      <trkpt lat="44.04028" lon="3.50479">
        <ele>1277</ele>
        <time>2022-03-28T21:40:10Z</time>
      </trkpt>
      <trkpt lat="44.04009" lon="3.50463">
        <ele>1280</ele>
        <time>2022-03-28T21:40:21Z</time>
      </trkpt>
      <trkpt lat="44.03992" lon="3.50461">
        <ele>1280</ele>
        <time>2022-03-28T21:40:30Z</time>
      </trkpt>
      <trkpt lat="44.03985" lon="3.50447">
        <ele>1281</ele>
        <time>2022-03-28T21:40:36Z</time>
      </trkpt>
      <trkpt lat="44.03981" lon="3.5043">
        <ele>1283</ele>
        <time>2022-03-28T21:40:42Z</time>
      </trkpt>
      <trkpt lat="44.03981" lon="3.50422">
        <ele>1283</ele>
        <time>2022-03-28T21:40:45Z</time>
      </trkpt>
      <trkpt lat="44.03994" lon="3.50407">
        <ele>1287</ele>
        <time>2022-03-28T21:40:53Z</time>
      </trkpt>
      <trkpt lat="44.03994" lon="3.50389">
        <ele>1291</ele>
        <time>2022-03-28T21:41:00Z</time>
      </trkpt>
      <trkpt lat="44.0397" lon="3.50355">
        <ele>1295</ele>
        <time>2022-03-28T21:41:17Z</time>
      </trkpt>
      <trkpt lat="44.0397" lon="3.5034">
        <ele>1298</ele>
        <time>2022-03-28T21:41:22Z</time>
      </trkpt>
      <trkpt lat="44.0396" lon="3.50321">
        <ele>1301</ele>
        <time>2022-03-28T21:41:31Z</time>
      </trkpt>
      <trkpt lat="44.03954" lon="3.50299">
        <ele>1304</ele>
        <time>2022-03-28T21:41:39Z</time>
      </trkpt>
      <trkpt lat="44.03942" lon="3.50267">
        <ele>1309</ele>
        <time>2022-03-28T21:41:52Z</time>
      </trkpt>
      <trkpt lat="44.03932" lon="3.50211">
        <ele>1317</ele>
        <time>2022-03-28T21:42:13Z</time>
      </trkpt>
      <trkpt lat="44.03924" lon="3.50185">
        <ele>1320</ele>
        <time>2022-03-28T21:42:23Z</time>
      </trkpt>
      <trkpt lat="44.03915" lon="3.50171">
        <ele>1320</ele>
        <time>2022-03-28T21:42:30Z</time>
      </trkpt>
      <trkpt lat="44.03899" lon="3.50151">
        <ele>1321</ele>
        <time>2022-03-28T21:42:41Z</time>
      </trkpt>
      <trkpt lat="44.03892" lon="3.5013">
        <ele>1324</ele>
        <time>2022-03-28T21:42:49Z</time>
      </trkpt>
      <trkpt lat="44.03891" lon="3.50097">
        <ele>1329</ele>
        <time>2022-03-28T21:43:01Z</time>
      </trkpt>
      <trkpt lat="44.03887" lon="3.50084">
        <ele>1330</ele>
        <time>2022-03-28T21:43:06Z</time>
      </trkpt>
      <trkpt lat="44.03815" lon="3.50022">
        <ele>1336</ele>
        <time>2022-03-28T21:43:48Z</time>
      </trkpt>
      <trkpt lat="44.03801" lon="3.49988">
        <ele>1340</ele>
        <time>2022-03-28T21:44:03Z</time>
      </trkpt>
      <trkpt lat="44.03801" lon="3.4997">
        <ele>1344</ele>
        <time>2022-03-28T21:44:09Z</time>
      </trkpt>
      <trkpt lat="44.03789" lon="3.49949">
        <ele>1346</ele>
        <time>2022-03-28T21:44:19Z</time>
      </trkpt>
      <trkpt lat="44.03774" lon="3.49931">
        <ele>1347</ele>
        <time>2022-03-28T21:44:29Z</time>
      </trkpt>
      <trkpt lat="44.03756" lon="3.499">
        <ele>1350</ele>
        <time>2022-03-28T21:44:43Z</time>
      </trkpt>
      <trkpt lat="44.03752" lon="3.49879">
        <ele>1354</ele>
        <time>2022-03-28T21:44:51Z</time>
      </trkpt>
      <trkpt lat="44.03745" lon="3.49862">
        <ele>1357</ele>
        <time>2022-03-28T21:44:58Z</time>
      </trkpt>
      <trkpt lat="44.03727" lon="3.49844">
        <ele>1356</ele>
        <time>2022-03-28T21:45:09Z</time>
      </trkpt>
      <trkpt lat="44.03694" lon="3.49806">
        <ele>1356</ele>
        <time>2022-03-28T21:45:30Z</time>
      </trkpt>
      <trkpt lat="44.03669" lon="3.49753">
        <ele>1360</ele>
        <time>2022-03-28T21:45:53Z</time>
      </trkpt>
      <trkpt lat="44.03657" lon="3.49723">
        <ele>1364</ele>
        <time>2022-03-28T21:46:05Z</time>
      </trkpt>
      <trkpt lat="44.0363" lon="3.49685">
        <ele>1368</ele>
        <time>2022-03-28T21:46:25Z</time>
      </trkpt>
      <trkpt lat="44.03618" lon="3.49664">
        <ele>1369</ele>
        <time>2022-03-28T21:46:34Z</time>
      </trkpt>
      <trkpt lat="44.03614" lon="3.49636">
        <ele>1369</ele>
        <time>2022-03-28T21:46:45Z</time>
      </trkpt>
      <trkpt lat="44.03584" lon="3.49614">
        <ele>1366</ele>
        <time>2022-03-28T21:47:02Z</time>
      </trkpt>
      <trkpt lat="44.03577" lon="3.49588">
        <ele>1367</ele>
        <time>2022-03-28T21:47:12Z</time>
      </trkpt>
      <trkpt lat="44.03571" lon="3.49525">
        <ele>1368</ele>
        <time>2022-03-28T21:47:34Z</time>
      </trkpt>
      <trkpt lat="44.03567" lon="3.49506">
        <ele>1369</ele>
        <time>2022-03-28T21:47:42Z</time>
      </trkpt>
      <trkpt lat="44.03565" lon="3.49487">
        <ele>1368</ele>
        <time>2022-03-28T21:47:48Z</time>
      </trkpt>
      <trkpt lat="44.03558" lon="3.49473">
        <ele>1368</ele>
        <time>2022-03-28T21:47:55Z</time>
      </trkpt>
      <trkpt lat="44.03541" lon="3.49429">
        <ele>1367</ele>
        <time>2022-03-28T21:48:13Z</time>
      </trkpt>
      <trkpt lat="44.03511" lon="3.49318">
        <ele>1367</ele>
        <time>2022-03-28T21:48:55Z</time>
      </trkpt>
      <trkpt lat="44.03505" lon="3.49302">
        <ele>1366</ele>
        <time>2022-03-28T21:49:02Z</time>
      </trkpt>
      <trkpt lat="44.03488" lon="3.49271">
        <ele>1367</ele>
        <time>2022-03-28T21:49:16Z</time>
      </trkpt>
      <trkpt lat="44.03468" lon="3.49225">
        <ele>1367</ele>
        <time>2022-03-28T21:49:35Z</time>
      </trkpt>
      <trkpt lat="44.03458" lon="3.49208">
        <ele>1366</ele>
        <time>2022-03-28T21:49:43Z</time>
      </trkpt>
      <trkpt lat="44.03437" lon="3.49181">
        <ele>1364</ele>
        <time>2022-03-28T21:49:57Z</time>
      </trkpt>
      <trkpt lat="44.03409" lon="3.49123">
        <ele>1361</ele>
        <time>2022-03-28T21:50:22Z</time>
      </trkpt>
      <trkpt lat="44.03398" lon="3.49107">
        <ele>1361</ele>
        <time>2022-03-28T21:50:30Z</time>
      </trkpt>
      <trkpt lat="44.03348" lon="3.49062">
        <ele>1361</ele>
        <time>2022-03-28T21:51:00Z</time>
      </trkpt>
      <trkpt lat="44.0331" lon="3.49035">
        <ele>1361</ele>
        <time>2022-03-28T21:51:22Z</time>
      </trkpt>
      <trkpt lat="44.03274" lon="3.49016">
        <ele>1361</ele>
        <time>2022-03-28T21:51:41Z</time>
      </trkpt>
      <trkpt lat="44.0324" lon="3.49004">
        <ele>1362</ele>
        <time>2022-03-28T21:51:58Z</time>
      </trkpt>
      <trkpt lat="44.03229" lon="3.48995">
        <ele>1361</ele>
        <time>2022-03-28T21:52:05Z</time>
      </trkpt>
      <trkpt lat="44.03217" lon="3.48979">
        <ele>1360</ele>
        <time>2022-03-28T21:52:13Z</time>
      </trkpt>
      <trkpt lat="44.03199" lon="3.48963">
        <ele>1358</ele>
        <time>2022-03-28T21:52:24Z</time>
      </trkpt>
      <trkpt lat="44.03181" lon="3.48943">
        <ele>1356</ele>
        <time>2022-03-28T21:52:35Z</time>
      </trkpt>
      <trkpt lat="44.03178" lon="3.48934">
        <ele>1355</ele>
        <time>2022-03-28T21:52:39Z</time>
      </trkpt>
      <trkpt lat="44.03176" lon="3.48916">
        <ele>1351</ele>
        <time>2022-03-28T21:52:45Z</time>
      </trkpt>
      <trkpt lat="44.03172" lon="3.48906">
        <ele>1350</ele>
        <time>2022-03-28T21:52:50Z</time>
      </trkpt>
      <trkpt lat="44.03167" lon="3.489">
        <ele>1349</ele>
        <time>2022-03-28T21:52:53Z</time>
      </trkpt>
      <trkpt lat="44.0315" lon="3.48898">
        <ele>1349</ele>
        <time>2022-03-28T21:53:01Z</time>
      </trkpt>
      <trkpt lat="44.03134" lon="3.48905">
        <ele>1349</ele>
        <time>2022-03-28T21:53:10Z</time>
      </trkpt>
      <trkpt lat="44.03121" lon="3.48906">
        <ele>1349</ele>
        <time>2022-03-28T21:53:16Z</time>
      </trkpt>
      <trkpt lat="44.031" lon="3.48879">
        <ele>1345</ele>
        <time>2022-03-28T21:53:31Z</time>
      </trkpt>
      <trkpt lat="44.0307" lon="3.48854">
        <ele>1341</ele>
        <time>2022-03-28T21:53:48Z</time>
      </trkpt>
      <trkpt lat="44.03014" lon="3.48799">
        <ele>1335</ele>
        <time>2022-03-28T21:54:22Z</time>
      </trkpt>
      <trkpt lat="44.02973" lon="3.48746">
        <ele>1326</ele>
        <time>2022-03-28T21:54:50Z</time>
      </trkpt>
      <trkpt lat="44.02953" lon="3.48735">
        <ele>1323</ele>
        <time>2022-03-28T21:55:01Z</time>
      </trkpt>
      <trkpt lat="44.02945" lon="3.48723">
        <ele>1320</ele>
        <time>2022-03-28T21:55:07Z</time>
      </trkpt>
      <trkpt lat="44.02946" lon="3.48711">
        <ele>1319</ele>
        <time>2022-03-28T21:55:11Z</time>
      </trkpt>
      <trkpt lat="44.02936" lon="3.48668">
        <ele>1312</ele>
        <time>2022-03-28T21:55:28Z</time>
      </trkpt>
      <trkpt lat="44.0294" lon="3.48648">
        <ele>1312</ele>
        <time>2022-03-28T21:55:35Z</time>
      </trkpt>
      <trkpt lat="44.02961" lon="3.48611">
        <ele>1311</ele>
        <time>2022-03-28T21:55:52Z</time>
      </trkpt>
      <trkpt lat="44.02966" lon="3.48595">
        <ele>1310</ele>
        <time>2022-03-28T21:55:58Z</time>
      </trkpt>
      <trkpt lat="44.02962" lon="3.48582">
        <ele>1309</ele>
        <time>2022-03-28T21:56:03Z</time>
      </trkpt>
      <trkpt lat="44.02944" lon="3.4856">
        <ele>1308</ele>
        <time>2022-03-28T21:56:15Z</time>
      </trkpt>
      <trkpt lat="44.02962" lon="3.48582">
        <ele>1309</ele>
        <time>2022-03-28T21:56:27Z</time>
      </trkpt>
      <trkpt lat="44.02966" lon="3.48595">
        <ele>1310</ele>
        <time>2022-03-28T21:56:33Z</time>
      </trkpt>
      <trkpt lat="44.02961" lon="3.48611">
        <ele>1311</ele>
        <time>2022-03-28T21:56:39Z</time>
      </trkpt>
      <trkpt lat="44.0294" lon="3.48648">
        <ele>1312</ele>
        <time>2022-03-28T21:56:56Z</time>
      </trkpt>
      <trkpt lat="44.02936" lon="3.48668">
        <ele>1312</ele>
        <time>2022-03-28T21:57:03Z</time>
      </trkpt>
      <trkpt lat="44.02946" lon="3.48711">
        <ele>1319</ele>
        <time>2022-03-28T21:57:20Z</time>
      </trkpt>
      <trkpt lat="44.02945" lon="3.48723">
        <ele>1320</ele>
        <time>2022-03-28T21:57:24Z</time>
      </trkpt>
      <trkpt lat="44.02953" lon="3.48735">
        <ele>1323</ele>
        <time>2022-03-28T21:57:30Z</time>
      </trkpt>
      <trkpt lat="44.02973" lon="3.48746">
        <ele>1326</ele>
        <time>2022-03-28T21:57:41Z</time>
      </trkpt>
      <trkpt lat="44.03014" lon="3.48799">
        <ele>1335</ele>
        <time>2022-03-28T21:58:09Z</time>
      </trkpt>
      <trkpt lat="44.0307" lon="3.48854">
        <ele>1341</ele>
        <time>2022-03-28T21:58:43Z</time>
      </trkpt>
      <trkpt lat="44.031" lon="3.48879">
        <ele>1345</ele>
        <time>2022-03-28T21:59:00Z</time>
      </trkpt>
      <trkpt lat="44.03121" lon="3.48906">
        <ele>1349</ele>
        <time>2022-03-28T21:59:15Z</time>
      </trkpt>
      <trkpt lat="44.03134" lon="3.48905">
        <ele>1349</ele>
        <time>2022-03-28T21:59:21Z</time>
      </trkpt>
      <trkpt lat="44.0315" lon="3.48898">
        <ele>1349</ele>
        <time>2022-03-28T21:59:30Z</time>
      </trkpt>
      <trkpt lat="44.03167" lon="3.489">
        <ele>1349</ele>
        <time>2022-03-28T21:59:38Z</time>
      </trkpt>
      <trkpt lat="44.03172" lon="3.48906">
        <ele>1350</ele>
        <time>2022-03-28T21:59:41Z</time>
      </trkpt>
      <trkpt lat="44.03176" lon="3.48916">
        <ele>1351</ele>
        <time>2022-03-28T21:59:46Z</time>
      </trkpt>
      <trkpt lat="44.03178" lon="3.48934">
        <ele>1355</ele>
        <time>2022-03-28T21:59:52Z</time>
      </trkpt>
      <trkpt lat="44.03181" lon="3.48943">
        <ele>1356</ele>
        <time>2022-03-28T21:59:56Z</time>
      </trkpt>
      <trkpt lat="44.03199" lon="3.48963">
        <ele>1358</ele>
        <time>2022-03-28T22:00:07Z</time>
      </trkpt>
      <trkpt lat="44.03217" lon="3.48979">
        <ele>1360</ele>
        <time>2022-03-28T22:00:18Z</time>
      </trkpt>
      <trkpt lat="44.03229" lon="3.48995">
        <ele>1361</ele>
        <time>2022-03-28T22:00:26Z</time>
      </trkpt>
      <trkpt lat="44.0324" lon="3.49004">
        <ele>1362</ele>
        <time>2022-03-28T22:00:33Z</time>
      </trkpt>
      <trkpt lat="44.03274" lon="3.49016">
        <ele>1361</ele>
        <time>2022-03-28T22:00:50Z</time>
      </trkpt>
      <trkpt lat="44.0331" lon="3.49035">
        <ele>1361</ele>
        <time>2022-03-28T22:01:09Z</time>
      </trkpt>
      <trkpt lat="44.03348" lon="3.49062">
        <ele>1361</ele>
        <time>2022-03-28T22:01:31Z</time>
      </trkpt>
      <trkpt lat="44.03398" lon="3.49107">
        <ele>1361</ele>
        <time>2022-03-28T22:02:01Z</time>
      </trkpt>
      <trkpt lat="44.03409" lon="3.49123">
        <ele>1361</ele>
        <time>2022-03-28T22:02:09Z</time>
      </trkpt>
      <trkpt lat="44.03437" lon="3.49181">
        <ele>1364</ele>
        <time>2022-03-28T22:02:34Z</time>
      </trkpt>
      <trkpt lat="44.03458" lon="3.49208">
        <ele>1366</ele>
        <time>2022-03-28T22:02:48Z</time>
      </trkpt>
      <trkpt lat="44.03468" lon="3.49225">
        <ele>1367</ele>
        <time>2022-03-28T22:02:56Z</time>
      </trkpt>
      <trkpt lat="44.03488" lon="3.49271">
        <ele>1367</ele>
        <time>2022-03-28T22:03:15Z</time>
      </trkpt>
      <trkpt lat="44.03505" lon="3.49302">
        <ele>1366</ele>
        <time>2022-03-28T22:03:29Z</time>
      </trkpt>
      <trkpt lat="44.03511" lon="3.49318">
        <ele>1367</ele>
        <time>2022-03-28T22:03:36Z</time>
      </trkpt>
      <trkpt lat="44.03541" lon="3.49429">
        <ele>1367</ele>
        <time>2022-03-28T22:04:18Z</time>
      </trkpt>
      <trkpt lat="44.03558" lon="3.49473">
        <ele>1368</ele>
        <time>2022-03-28T22:04:36Z</time>
      </trkpt>
      <trkpt lat="44.03565" lon="3.49487">
        <ele>1368</ele>
        <time>2022-03-28T22:04:42Z</time>
      </trkpt>
      <trkpt lat="44.03567" lon="3.49506">
        <ele>1369</ele>
        <time>2022-03-28T22:04:49Z</time>
      </trkpt>
      <trkpt lat="44.03571" lon="3.49527">
        <ele>1368</ele>
        <time>2022-03-28T22:04:57Z</time>
      </trkpt>
      <trkpt lat="44.03567" lon="3.49506">
        <ele>1369</ele>
        <time>2022-03-28T22:05:05Z</time>
      </trkpt>
      <trkpt lat="44.03565" lon="3.49487">
        <ele>1368</ele>
        <time>2022-03-28T22:05:12Z</time>
      </trkpt>
      <trkpt lat="44.03558" lon="3.49473">
        <ele>1368</ele>
        <time>2022-03-28T22:05:18Z</time>
      </trkpt>
      <trkpt lat="44.03541" lon="3.49429">
        <ele>1367</ele>
        <time>2022-03-28T22:05:36Z</time>
      </trkpt>
      <trkpt lat="44.03511" lon="3.49318">
        <ele>1367</ele>
        <time>2022-03-28T22:06:19Z</time>
      </trkpt>
      <trkpt lat="44.03505" lon="3.49302">
        <ele>1366</ele>
        <time>2022-03-28T22:06:25Z</time>
      </trkpt>
      <trkpt lat="44.03488" lon="3.49271">
        <ele>1367</ele>
        <time>2022-03-28T22:06:39Z</time>
      </trkpt>
      <trkpt lat="44.03468" lon="3.49225">
        <ele>1367</ele>
        <time>2022-03-28T22:06:59Z</time>
      </trkpt>
      <trkpt lat="44.03458" lon="3.49208">
        <ele>1366</ele>
        <time>2022-03-28T22:07:06Z</time>
      </trkpt>
      <trkpt lat="44.03437" lon="3.49181">
        <ele>1364</ele>
        <time>2022-03-28T22:07:21Z</time>
      </trkpt>
      <trkpt lat="44.03409" lon="3.49123">
        <ele>1361</ele>
        <time>2022-03-28T22:07:46Z</time>
      </trkpt>
      <trkpt lat="44.03398" lon="3.49107">
        <ele>1361</ele>
        <time>2022-03-28T22:07:54Z</time>
      </trkpt>
      <trkpt lat="44.03348" lon="3.49062">
        <ele>1361</ele>
        <time>2022-03-28T22:08:24Z</time>
      </trkpt>
      <trkpt lat="44.0331" lon="3.49035">
        <ele>1361</ele>
        <time>2022-03-28T22:08:45Z</time>
      </trkpt>
      <trkpt lat="44.03274" lon="3.49016">
        <ele>1361</ele>
        <time>2022-03-28T22:09:04Z</time>
      </trkpt>
      <trkpt lat="44.0324" lon="3.49004">
        <ele>1362</ele>
        <time>2022-03-28T22:09:22Z</time>
      </trkpt>
      <trkpt lat="44.03229" lon="3.48995">
        <ele>1361</ele>
        <time>2022-03-28T22:09:28Z</time>
      </trkpt>
      <trkpt lat="44.03217" lon="3.48979">
        <ele>1360</ele>
        <time>2022-03-28T22:09:37Z</time>
      </trkpt>
      <trkpt lat="44.03199" lon="3.48963">
        <ele>1358</ele>
        <time>2022-03-28T22:09:47Z</time>
      </trkpt>
      <trkpt lat="44.03181" lon="3.48943">
        <ele>1356</ele>
        <time>2022-03-28T22:09:59Z</time>
      </trkpt>
      <trkpt lat="44.03178" lon="3.48934">
        <ele>1355</ele>
        <time>2022-03-28T22:10:02Z</time>
      </trkpt>
      <trkpt lat="44.03176" lon="3.48916">
        <ele>1351</ele>
        <time>2022-03-28T22:10:09Z</time>
      </trkpt>
      <trkpt lat="44.03172" lon="3.48906">
        <ele>1350</ele>
        <time>2022-03-28T22:10:13Z</time>
      </trkpt>
      <trkpt lat="44.03167" lon="3.489">
        <ele>1349</ele>
        <time>2022-03-28T22:10:16Z</time>
      </trkpt>
      <trkpt lat="44.0315" lon="3.48898">
        <ele>1349</ele>
        <time>2022-03-28T22:10:25Z</time>
      </trkpt>
      <trkpt lat="44.03134" lon="3.48905">
        <ele>1349</ele>
        <time>2022-03-28T22:10:33Z</time>
      </trkpt>
      <trkpt lat="44.03121" lon="3.48906">
        <ele>1349</ele>
        <time>2022-03-28T22:10:40Z</time>
      </trkpt>
      <trkpt lat="44.031" lon="3.48879">
        <ele>1345</ele>
        <time>2022-03-28T22:10:54Z</time>
      </trkpt>
      <trkpt lat="44.0307" lon="3.48854">
        <ele>1341</ele>
        <time>2022-03-28T22:11:12Z</time>
      </trkpt>
      <trkpt lat="44.03014" lon="3.48799">
        <ele>1335</ele>
        <time>2022-03-28T22:11:46Z</time>
      </trkpt>
      <trkpt lat="44.02973" lon="3.48746">
        <ele>1326</ele>
        <time>2022-03-28T22:12:14Z</time>
      </trkpt>
      <trkpt lat="44.02953" lon="3.48735">
        <ele>1323</ele>
        <time>2022-03-28T22:12:25Z</time>
      </trkpt>
      <trkpt lat="44.02945" lon="3.48723">
        <ele>1320</ele>
        <time>2022-03-28T22:12:31Z</time>
      </trkpt>
      <trkpt lat="44.02946" lon="3.48711">
        <ele>1319</ele>
        <time>2022-03-28T22:12:35Z</time>
      </trkpt>
      <trkpt lat="44.02936" lon="3.48668">
        <ele>1312</ele>
        <time>2022-03-28T22:12:51Z</time>
      </trkpt>
      <trkpt lat="44.0294" lon="3.48648">
        <ele>1312</ele>
        <time>2022-03-28T22:12:59Z</time>
      </trkpt>
      <trkpt lat="44.02961" lon="3.48611">
        <ele>1311</ele>
        <time>2022-03-28T22:13:16Z</time>
      </trkpt>
      <trkpt lat="44.02966" lon="3.48595">
        <ele>1310</ele>
        <time>2022-03-28T22:13:22Z</time>
      </trkpt>
      <trkpt lat="44.02962" lon="3.48582">
        <ele>1309</ele>
        <time>2022-03-28T22:13:27Z</time>
      </trkpt>
      <trkpt lat="44.02933" lon="3.48547">
        <ele>1308</ele>
        <time>2022-03-28T22:13:46Z</time>
      </trkpt>
      <trkpt lat="44.02926" lon="3.4853">
        <ele>1309</ele>
        <time>2022-03-28T22:13:53Z</time>
      </trkpt>
      <trkpt lat="44.02919" lon="3.48555">
        <ele>1308</ele>
        <time>2022-03-28T22:14:03Z</time>
      </trkpt>
      <trkpt lat="44.02911" lon="3.48618">
        <ele>1308</ele>
        <time>2022-03-28T22:14:26Z</time>
      </trkpt>
      <trkpt lat="44.02914" lon="3.48681">
        <ele>1311</ele>
        <time>2022-03-28T22:14:49Z</time>
      </trkpt>
      <trkpt lat="44.02911" lon="3.48693">
        <ele>1312</ele>
        <time>2022-03-28T22:14:53Z</time>
      </trkpt>
      <trkpt lat="44.02896" lon="3.48723">
        <ele>1314</ele>
        <time>2022-03-28T22:15:06Z</time>
      </trkpt>
      <trkpt lat="44.02867" lon="3.4874">
        <ele>1312</ele>
        <time>2022-03-28T22:15:22Z</time>
      </trkpt>
      <trkpt lat="44.02855" lon="3.48751">
        <ele>1312</ele>
        <time>2022-03-28T22:15:29Z</time>
      </trkpt>
      <trkpt lat="44.02824" lon="3.48798">
        <ele>1317</ele>
        <time>2022-03-28T22:15:52Z</time>
      </trkpt>
      <trkpt lat="44.02794" lon="3.48824">
        <ele>1317</ele>
        <time>2022-03-28T22:16:10Z</time>
      </trkpt>
      <trkpt lat="44.02777" lon="3.48846">
        <ele>1317</ele>
        <time>2022-03-28T22:16:22Z</time>
      </trkpt>
      <trkpt lat="44.02764" lon="3.48885">
        <ele>1318</ele>
        <time>2022-03-28T22:16:37Z</time>
      </trkpt>
      <trkpt lat="44.02765" lon="3.489">
        <ele>1320</ele>
        <time>2022-03-28T22:16:42Z</time>
      </trkpt>
      <trkpt lat="44.02767" lon="3.48913">
        <ele>1321</ele>
        <time>2022-03-28T22:16:47Z</time>
      </trkpt>
      <trkpt lat="44.02772" lon="3.48923">
        <ele>1322</ele>
        <time>2022-03-28T22:16:52Z</time>
      </trkpt>
      <trkpt lat="44.02786" lon="3.4893">
        <ele>1324</ele>
        <time>2022-03-28T22:16:59Z</time>
      </trkpt>
      <trkpt lat="44.02793" lon="3.48929">
        <ele>1325</ele>
        <time>2022-03-28T22:17:03Z</time>
      </trkpt>
      <trkpt lat="44.02823" lon="3.4894">
        <ele>1329</ele>
        <time>2022-03-28T22:17:18Z</time>
      </trkpt>
      <trkpt lat="44.0286" lon="3.4896">
        <ele>1334</ele>
        <time>2022-03-28T22:17:38Z</time>
      </trkpt>
      <trkpt lat="44.0287" lon="3.48967">
        <ele>1336</ele>
        <time>2022-03-28T22:17:44Z</time>
      </trkpt>
      <trkpt lat="44.0286" lon="3.4896">
        <ele>1334</ele>
        <time>2022-03-28T22:17:49Z</time>
      </trkpt>
      <trkpt lat="44.02823" lon="3.4894">
        <ele>1329</ele>
        <time>2022-03-28T22:18:09Z</time>
      </trkpt>
      <trkpt lat="44.02793" lon="3.48929">
        <ele>1325</ele>
        <time>2022-03-28T22:18:25Z</time>
      </trkpt>
      <trkpt lat="44.02786" lon="3.4893">
        <ele>1324</ele>
        <time>2022-03-28T22:18:28Z</time>
      </trkpt>
      <trkpt lat="44.02775" lon="3.48925">
        <ele>1323</ele>
        <time>2022-03-28T22:18:34Z</time>
      </trkpt>
      <trkpt lat="44.02758" lon="3.48937">
        <ele>1320</ele>
        <time>2022-03-28T22:18:43Z</time>
      </trkpt>
      <trkpt lat="44.02742" lon="3.48953">
        <ele>1318</ele>
        <time>2022-03-28T22:18:53Z</time>
      </trkpt>
      <trkpt lat="44.02737" lon="3.48952">
        <ele>1317</ele>
        <time>2022-03-28T22:18:56Z</time>
      </trkpt>
      <trkpt lat="44.0273" lon="3.48955">
        <ele>1317</ele>
        <time>2022-03-28T22:18:59Z</time>
      </trkpt>
      <trkpt lat="44.02722" lon="3.48962">
        <ele>1316</ele>
        <time>2022-03-28T22:19:04Z</time>
      </trkpt>
      <trkpt lat="44.02711" lon="3.48967">
        <ele>1315</ele>
        <time>2022-03-28T22:19:10Z</time>
      </trkpt>
      <trkpt lat="44.02701" lon="3.48987">
        <ele>1315</ele>
        <time>2022-03-28T22:19:19Z</time>
      </trkpt>
      <trkpt lat="44.02697" lon="3.48999">
        <ele>1315</ele>
        <time>2022-03-28T22:19:23Z</time>
      </trkpt>
      <trkpt lat="44.02697" lon="3.49012">
        <ele>1315</ele>
        <time>2022-03-28T22:19:28Z</time>
      </trkpt>
      <trkpt lat="44.02699" lon="3.49021">
        <ele>1314</ele>
        <time>2022-03-28T22:19:32Z</time>
      </trkpt>
      <trkpt lat="44.02703" lon="3.49029">
        <ele>1314</ele>
        <time>2022-03-28T22:19:35Z</time>
      </trkpt>
      <trkpt lat="44.02711" lon="3.49032">
        <ele>1315</ele>
        <time>2022-03-28T22:19:39Z</time>
      </trkpt>
      <trkpt lat="44.02737" lon="3.49034">
        <ele>1316</ele>
        <time>2022-03-28T22:19:52Z</time>
      </trkpt>
      <trkpt lat="44.02751" lon="3.49044">
        <ele>1317</ele>
        <time>2022-03-28T22:20:00Z</time>
      </trkpt>
      <trkpt lat="44.02765" lon="3.4905">
        <ele>1318</ele>
        <time>2022-03-28T22:20:07Z</time>
      </trkpt>
      <trkpt lat="44.028" lon="3.49051">
        <ele>1321</ele>
        <time>2022-03-28T22:20:25Z</time>
      </trkpt>
      <trkpt lat="44.02808" lon="3.49055">
        <ele>1321</ele>
        <time>2022-03-28T22:20:29Z</time>
      </trkpt>
      <trkpt lat="44.02826" lon="3.49086">
        <ele>1320</ele>
        <time>2022-03-28T22:20:44Z</time>
      </trkpt>
      <trkpt lat="44.02831" lon="3.49102">
        <ele>1318</ele>
        <time>2022-03-28T22:20:50Z</time>
      </trkpt>
      <trkpt lat="44.02845" lon="3.49187">
        <ele>1311</ele>
        <time>2022-03-28T22:21:21Z</time>
      </trkpt>
      <trkpt lat="44.02865" lon="3.49242">
        <ele>1310</ele>
        <time>2022-03-28T22:21:43Z</time>
      </trkpt>
      <trkpt lat="44.02868" lon="3.4926">
        <ele>1310</ele>
        <time>2022-03-28T22:21:50Z</time>
      </trkpt>
      <trkpt lat="44.02867" lon="3.49281">
        <ele>1311</ele>
        <time>2022-03-28T22:21:58Z</time>
      </trkpt>
      <trkpt lat="44.02865" lon="3.49293">
        <ele>1311</ele>
        <time>2022-03-28T22:22:02Z</time>
      </trkpt>
      <trkpt lat="44.02855" lon="3.4931">
        <ele>1310</ele>
        <time>2022-03-28T22:22:10Z</time>
      </trkpt>
      <trkpt lat="44.02833" lon="3.49333">
        <ele>1307</ele>
        <time>2022-03-28T22:22:24Z</time>
      </trkpt>
      <trkpt lat="44.02792" lon="3.4937">
        <ele>1309</ele>
        <time>2022-03-28T22:22:48Z</time>
      </trkpt>
      <trkpt lat="44.02737" lon="3.49425">
        <ele>1312</ele>
        <time>2022-03-28T22:23:22Z</time>
      </trkpt>
      <trkpt lat="44.02724" lon="3.49436">
        <ele>1314</ele>
        <time>2022-03-28T22:23:30Z</time>
      </trkpt>
      <trkpt lat="44.0265" lon="3.49488">
        <ele>1319</ele>
        <time>2022-03-28T22:24:11Z</time>
      </trkpt>
      <trkpt lat="44.0264" lon="3.49494">
        <ele>1320</ele>
        <time>2022-03-28T22:24:17Z</time>
      </trkpt>
      <trkpt lat="44.02621" lon="3.49493">
        <ele>1318</ele>
        <time>2022-03-28T22:24:26Z</time>
      </trkpt>
      <trkpt lat="44.02614" lon="3.49496">
        <ele>1318</ele>
        <time>2022-03-28T22:24:30Z</time>
      </trkpt>
      <trkpt lat="44.02585" lon="3.49514">
        <ele>1320</ele>
        <time>2022-03-28T22:24:46Z</time>
      </trkpt>
      <trkpt lat="44.02547" lon="3.4953">
        <ele>1323</ele>
        <time>2022-03-28T22:25:06Z</time>
      </trkpt>
      <trkpt lat="44.02493" lon="3.4959">
        <ele>1325</ele>
        <time>2022-03-28T22:25:40Z</time>
      </trkpt>
      <trkpt lat="44.02477" lon="3.4963">
        <ele>1323</ele>
        <time>2022-03-28T22:25:57Z</time>
      </trkpt>
      <trkpt lat="44.02474" lon="3.4964">
        <ele>1322</ele>
        <time>2022-03-28T22:26:01Z</time>
      </trkpt>
      <trkpt lat="44.02474" lon="3.49652">
        <ele>1322</ele>
        <time>2022-03-28T22:26:05Z</time>
      </trkpt>
      <trkpt lat="44.02486" lon="3.4969">
        <ele>1321</ele>
        <time>2022-03-28T22:26:20Z</time>
      </trkpt>
      <trkpt lat="44.02506" lon="3.49725">
        <ele>1323</ele>
        <time>2022-03-28T22:26:36Z</time>
      </trkpt>
      <trkpt lat="44.0253" lon="3.49787">
        <ele>1323</ele>
        <time>2022-03-28T22:27:01Z</time>
      </trkpt>
      <trkpt lat="44.02542" lon="3.49805">
        <ele>1323</ele>
        <time>2022-03-28T22:27:10Z</time>
      </trkpt>
      <trkpt lat="44.02564" lon="3.4985">
        <ele>1323</ele>
        <time>2022-03-28T22:27:30Z</time>
      </trkpt>
      <trkpt lat="44.02579" lon="3.49874">
        <ele>1324</ele>
        <time>2022-03-28T22:27:41Z</time>
      </trkpt>
      <trkpt lat="44.02607" lon="3.49899">
        <ele>1328</ele>
        <time>2022-03-28T22:27:58Z</time>
      </trkpt>
      <trkpt lat="44.0262" lon="3.49916">
        <ele>1328</ele>
        <time>2022-03-28T22:28:07Z</time>
      </trkpt>
      <trkpt lat="44.02654" lon="3.49949">
        <ele>1336</ele>
        <time>2022-03-28T22:28:27Z</time>
      </trkpt>
      <trkpt lat="44.02664" lon="3.49963">
        <ele>1337</ele>
        <time>2022-03-28T22:28:34Z</time>
      </trkpt>
      <trkpt lat="44.02678" lon="3.50001">
        <ele>1337</ele>
        <time>2022-03-28T22:28:50Z</time>
      </trkpt>
      <trkpt lat="44.02687" lon="3.5001">
        <ele>1337</ele>
        <time>2022-03-28T22:28:55Z</time>
      </trkpt>
      <trkpt lat="44.02706" lon="3.50015">
        <ele>1338</ele>
        <time>2022-03-28T22:29:05Z</time>
      </trkpt>
      <trkpt lat="44.02749" lon="3.49996">
        <ele>1341</ele>
        <time>2022-03-28T22:29:28Z</time>
      </trkpt>
      <trkpt lat="44.02786" lon="3.49987">
        <ele>1341</ele>
        <time>2022-03-28T22:29:46Z</time>
      </trkpt>
      <trkpt lat="44.02822" lon="3.49971">
        <ele>1343</ele>
        <time>2022-03-28T22:30:05Z</time>
      </trkpt>
      <trkpt lat="44.02876" lon="3.49954">
        <ele>1346</ele>
        <time>2022-03-28T22:30:33Z</time>
      </trkpt>
      <trkpt lat="44.02889" lon="3.49956">
        <ele>1345</ele>
        <time>2022-03-28T22:30:40Z</time>
      </trkpt>
      <trkpt lat="44.02906" lon="3.49963">
        <ele>1342</ele>
        <time>2022-03-28T22:30:48Z</time>
      </trkpt>
      <trkpt lat="44.02965" lon="3.49982">
        <ele>1340</ele>
        <time>2022-03-28T22:31:19Z</time>
      </trkpt>
      <trkpt lat="44.03024" lon="3.50004">
        <ele>1338</ele>
        <time>2022-03-28T22:31:49Z</time>
      </trkpt>
      <trkpt lat="44.0305" lon="3.50021">
        <ele>1335</ele>
        <time>2022-03-28T22:32:04Z</time>
      </trkpt>
      <trkpt lat="44.03075" lon="3.50031">
        <ele>1334</ele>
        <time>2022-03-28T22:32:17Z</time>
      </trkpt>
      <trkpt lat="44.03085" lon="3.50032">
        <ele>1335</ele>
        <time>2022-03-28T22:32:22Z</time>
      </trkpt>
      <trkpt lat="44.03126" lon="3.50029">
        <ele>1337</ele>
        <time>2022-03-28T22:32:42Z</time>
      </trkpt>
      <trkpt lat="44.03192" lon="3.50032">
        <ele>1340</ele>
        <time>2022-03-28T22:33:15Z</time>
      </trkpt>
      <trkpt lat="44.03277" lon="3.5004">
        <ele>1345</ele>
        <time>2022-03-28T22:33:58Z</time>
      </trkpt>
      <trkpt lat="44.03302" lon="3.50049">
        <ele>1345</ele>
        <time>2022-03-28T22:34:11Z</time>
      </trkpt>
      <trkpt lat="44.03348" lon="3.50085">
        <ele>1341</ele>
        <time>2022-03-28T22:34:37Z</time>
      </trkpt>
      <trkpt lat="44.03354" lon="3.50093">
        <ele>1340</ele>
        <time>2022-03-28T22:34:41Z</time>
      </trkpt>
      <trkpt lat="44.03368" lon="3.50121">
        <ele>1338</ele>
        <time>2022-03-28T22:34:54Z</time>
      </trkpt>
      <trkpt lat="44.03372" lon="3.50131">
        <ele>1336</ele>
        <time>2022-03-28T22:34:58Z</time>
      </trkpt>
      <trkpt lat="44.03377" lon="3.50155">
        <ele>1333</ele>
        <time>2022-03-28T22:35:07Z</time>
      </trkpt>
      <trkpt lat="44.03397" lon="3.50198">
        <ele>1332</ele>
        <time>2022-03-28T22:35:25Z</time>
      </trkpt>
      <trkpt lat="44.03399" lon="3.50207">
        <ele>1332</ele>
        <time>2022-03-28T22:35:29Z</time>
      </trkpt>
      <trkpt lat="44.03459" lon="3.50243">
        <ele>1330</ele>
        <time>2022-03-28T22:36:01Z</time>
      </trkpt>
      <trkpt lat="44.03487" lon="3.50273">
        <ele>1329</ele>
        <time>2022-03-28T22:36:19Z</time>
      </trkpt>
      <trkpt lat="44.03543" lon="3.50328">
        <ele>1325</ele>
        <time>2022-03-28T22:36:53Z</time>
      </trkpt>
      <trkpt lat="44.03544" lon="3.50339">
        <ele>1325</ele>
        <time>2022-03-28T22:36:57Z</time>
      </trkpt>
      <trkpt lat="44.03566" lon="3.50346">
        <ele>1322</ele>
        <time>2022-03-28T22:37:09Z</time>
      </trkpt>
      <trkpt lat="44.03575" lon="3.50358">
        <ele>1321</ele>
        <time>2022-03-28T22:37:15Z</time>
      </trkpt>
      <trkpt lat="44.03608" lon="3.50369">
        <ele>1314</ele>
        <time>2022-03-28T22:37:32Z</time>
      </trkpt>
      <trkpt lat="44.03649" lon="3.50387">
        <ele>1305</ele>
        <time>2022-03-28T22:37:53Z</time>
      </trkpt>
      <trkpt lat="44.03671" lon="3.50412">
        <ele>1301</ele>
        <time>2022-03-28T22:38:08Z</time>
      </trkpt>
      <trkpt lat="44.03705" lon="3.50435">
        <ele>1294</ele>
        <time>2022-03-28T22:38:27Z</time>
      </trkpt>
      <trkpt lat="44.03711" lon="3.50444">
        <ele>1293</ele>
        <time>2022-03-28T22:38:31Z</time>
      </trkpt>
      <trkpt lat="44.03717" lon="3.50481">
        <ele>1292</ele>
        <time>2022-03-28T22:38:45Z</time>
      </trkpt>
      <trkpt lat="44.03724" lon="3.505">
        <ele>1291</ele>
        <time>2022-03-28T22:38:52Z</time>
      </trkpt>
      <trkpt lat="44.0372" lon="3.50531">
        <ele>1291</ele>
        <time>2022-03-28T22:39:04Z</time>
      </trkpt>
      <trkpt lat="44.03716" lon="3.50544">
        <ele>1292</ele>
        <time>2022-03-28T22:39:09Z</time>
      </trkpt>
      <trkpt lat="44.03724" lon="3.50575">
        <ele>1289</ele>
        <time>2022-03-28T22:39:21Z</time>
      </trkpt>
      <trkpt lat="44.03733" lon="3.5059">
        <ele>1287</ele>
        <time>2022-03-28T22:39:28Z</time>
      </trkpt>
      <trkpt lat="44.03735" lon="3.506">
        <ele>1286</ele>
        <time>2022-03-28T22:39:31Z</time>
      </trkpt>
      <trkpt lat="44.03753" lon="3.50624">
        <ele>1282</ele>
        <time>2022-03-28T22:39:44Z</time>
      </trkpt>
      <trkpt lat="44.03789" lon="3.50614">
        <ele>1278</ele>
        <time>2022-03-28T22:40:02Z</time>
      </trkpt>
      <trkpt lat="44.03805" lon="3.50606">
        <ele>1276</ele>
        <time>2022-03-28T22:40:11Z</time>
      </trkpt>
      <trkpt lat="44.03827" lon="3.50605">
        <ele>1273</ele>
        <time>2022-03-28T22:40:22Z</time>
      </trkpt>
      <trkpt lat="44.03863" lon="3.50611">
        <ele>1270</ele>
        <time>2022-03-28T22:40:40Z</time>
      </trkpt>
      <trkpt lat="44.03874" lon="3.50625">
        <ele>1268</ele>
        <time>2022-03-28T22:40:47Z</time>
      </trkpt>
      <trkpt lat="44.03881" lon="3.5064">
        <ele>1267</ele>
        <time>2022-03-28T22:40:54Z</time>
      </trkpt>
      <trkpt lat="44.0388" lon="3.50666">
        <ele>1267</ele>
        <time>2022-03-28T22:41:03Z</time>
      </trkpt>
      <trkpt lat="44.03884" lon="3.50687">
        <ele>1267</ele>
        <time>2022-03-28T22:41:11Z</time>
      </trkpt>
      <trkpt lat="44.0391" lon="3.50721">
        <ele>1266</ele>
        <time>2022-03-28T22:41:29Z</time>
      </trkpt>
      <trkpt lat="44.03924" lon="3.50729">
        <ele>1265</ele>
        <time>2022-03-28T22:41:36Z</time>
      </trkpt>
      <trkpt lat="44.03944" lon="3.50732">
        <ele>1265</ele>
        <time>2022-03-28T22:41:46Z</time>
      </trkpt>
      <trkpt lat="44.0396" lon="3.50743">
        <ele>1264</ele>
        <time>2022-03-28T22:41:55Z</time>
      </trkpt>
      <trkpt lat="44.04002" lon="3.50789">
        <ele>1265</ele>
        <time>2022-03-28T22:42:22Z</time>
      </trkpt>
      <trkpt lat="44.04034" lon="3.50832">
        <ele>1266</ele>
        <time>2022-03-28T22:42:44Z</time>
      </trkpt>
      <trkpt lat="44.04044" lon="3.50865">
        <ele>1265</ele>
        <time>2022-03-28T22:42:57Z</time>
      </trkpt>
      <trkpt lat="44.04043" lon="3.50908">
        <ele>1264</ele>
        <time>2022-03-28T22:43:13Z</time>
      </trkpt>
      <trkpt lat="44.04037" lon="3.50947">
        <ele>1263</ele>
        <time>2022-03-28T22:43:27Z</time>
      </trkpt>
      <trkpt lat="44.04049" lon="3.50979">
        <ele>1261</ele>
        <time>2022-03-28T22:43:40Z</time>
      </trkpt>
      <trkpt lat="44.04099" lon="3.51034">
        <ele>1259</ele>
        <time>2022-03-28T22:44:12Z</time>
      </trkpt>
      <trkpt lat="44.04122" lon="3.5104">
        <ele>1259</ele>
        <time>2022-03-28T22:44:24Z</time>
      </trkpt>
      <trkpt lat="44.04137" lon="3.51049">
        <ele>1258</ele>
        <time>2022-03-28T22:44:32Z</time>
      </trkpt>
      <trkpt lat="44.0416" lon="3.51052">
        <ele>1258</ele>
        <time>2022-03-28T22:44:43Z</time>
      </trkpt>
      <trkpt lat="44.04172" lon="3.51049">
        <ele>1258</ele>
        <time>2022-03-28T22:44:49Z</time>
      </trkpt>
      <trkpt lat="44.04185" lon="3.5104">
        <ele>1259</ele>
        <time>2022-03-28T22:44:57Z</time>
      </trkpt>
      <trkpt lat="44.04201" lon="3.51052">
        <ele>1260</ele>
        <time>2022-03-28T22:45:06Z</time>
      </trkpt>
      <trkpt lat="44.04199" lon="3.51064">
        <ele>1260</ele>
        <time>2022-03-28T22:45:10Z</time>
      </trkpt>
      <trkpt lat="44.04223" lon="3.51099">
        <ele>1261</ele>
        <time>2022-03-28T22:45:28Z</time>
      </trkpt>
      <trkpt lat="44.04242" lon="3.51137">
        <ele>1260</ele>
        <time>2022-03-28T22:45:44Z</time>
      </trkpt>
      <trkpt lat="44.04257" lon="3.51171">
        <ele>1258</ele>
        <time>2022-03-28T22:45:59Z</time>
      </trkpt>
      <trkpt lat="44.04319" lon="3.51242">
        <ele>1257</ele>
        <time>2022-03-28T22:46:39Z</time>
      </trkpt>
      <trkpt lat="44.04329" lon="3.5126">
        <ele>1256</ele>
        <time>2022-03-28T22:46:47Z</time>
      </trkpt>
      <trkpt lat="44.04332" lon="3.51275">
        <ele>1254</ele>
        <time>2022-03-28T22:46:53Z</time>
      </trkpt>
      <trkpt lat="44.04319" lon="3.51316">
        <ele>1249</ele>
        <time>2022-03-28T22:47:09Z</time>
      </trkpt>
      <trkpt lat="44.04322" lon="3.5133">
        <ele>1248</ele>
        <time>2022-03-28T22:47:14Z</time>
      </trkpt>
      <trkpt lat="44.04339" lon="3.51376">
        <ele>1244</ele>
        <time>2022-03-28T22:47:33Z</time>
      </trkpt>
      <trkpt lat="44.04343" lon="3.51412">
        <ele>1241</ele>
        <time>2022-03-28T22:47:46Z</time>
      </trkpt>
      <trkpt lat="44.04348" lon="3.51435">
        <ele>1240</ele>
        <time>2022-03-28T22:47:54Z</time>
      </trkpt>
      <trkpt lat="44.04361" lon="3.51447">
        <ele>1241</ele>
        <time>2022-03-28T22:48:02Z</time>
      </trkpt>
      <trkpt lat="44.04377" lon="3.51448">
        <ele>1242</ele>
        <time>2022-03-28T22:48:10Z</time>
      </trkpt>
      <trkpt lat="44.04404" lon="3.51439">
        <ele>1245</ele>
        <time>2022-03-28T22:48:24Z</time>
      </trkpt>
      <trkpt lat="44.04418" lon="3.51443">
        <ele>1246</ele>
        <time>2022-03-28T22:48:31Z</time>
      </trkpt>
      <trkpt lat="44.04428" lon="3.51457">
        <ele>1245</ele>
        <time>2022-03-28T22:48:38Z</time>
      </trkpt>
      <trkpt lat="44.04444" lon="3.51504">
        <ele>1244</ele>
        <time>2022-03-28T22:48:57Z</time>
      </trkpt>
      <trkpt lat="44.04476" lon="3.51567">
        <ele>1243</ele>
        <time>2022-03-28T22:49:25Z</time>
      </trkpt>
      <trkpt lat="44.04492" lon="3.51589">
        <ele>1243</ele>
        <time>2022-03-28T22:49:36Z</time>
      </trkpt>
      <trkpt lat="44.04494" lon="3.51612">
        <ele>1243</ele>
        <time>2022-03-28T22:49:44Z</time>
      </trkpt>
      <trkpt lat="44.04525" lon="3.51674">
        <ele>1242</ele>
        <time>2022-03-28T22:50:12Z</time>
      </trkpt>
      <trkpt lat="44.04517" lon="3.51684">
        <ele>1242</ele>
        <time>2022-03-28T22:50:17Z</time>
      </trkpt>
      <trkpt lat="44.04525" lon="3.51674">
        <ele>1242</ele>
        <time>2022-03-28T22:50:22Z</time>
      </trkpt>
      <trkpt lat="44.04541" lon="3.51648">
        <ele>1243</ele>
        <time>2022-03-28T22:50:35Z</time>
      </trkpt>
      <trkpt lat="44.04557" lon="3.51613">
        <ele>1245</ele>
        <time>2022-03-28T22:50:50Z</time>
      </trkpt>
      <trkpt lat="44.0457" lon="3.51596">
        <ele>1246</ele>
        <time>2022-03-28T22:50:58Z</time>
      </trkpt>
      <trkpt lat="44.04588" lon="3.51594">
        <ele>1246</ele>
        <time>2022-03-28T22:51:07Z</time>
      </trkpt>
      <trkpt lat="44.046" lon="3.51582">
        <ele>1246</ele>
        <time>2022-03-28T22:51:15Z</time>
      </trkpt>
      <trkpt lat="44.04631" lon="3.51532">
        <ele>1248</ele>
        <time>2022-03-28T22:51:39Z</time>
      </trkpt>
      <trkpt lat="44.04665" lon="3.51517">
        <ele>1248</ele>
        <time>2022-03-28T22:51:56Z</time>
      </trkpt>
      <trkpt lat="44.04682" lon="3.51515">
        <ele>1247</ele>
        <time>2022-03-28T22:52:05Z</time>
      </trkpt>
      <trkpt lat="44.04743" lon="3.51527">
        <ele>1243</ele>
        <time>2022-03-28T22:52:36Z</time>
      </trkpt>
      <trkpt lat="44.04764" lon="3.51534">
        <ele>1241</ele>
        <time>2022-03-28T22:52:47Z</time>
      </trkpt>
      <trkpt lat="44.04813" lon="3.51514">
        <ele>1241</ele>
        <time>2022-03-28T22:53:12Z</time>
      </trkpt>
      <trkpt lat="44.04848" lon="3.51504">
        <ele>1242</ele>
        <time>2022-03-28T22:53:30Z</time>
      </trkpt>
      <trkpt lat="44.04863" lon="3.51504">
        <ele>1243</ele>
        <time>2022-03-28T22:53:38Z</time>
      </trkpt>
      <trkpt lat="44.04875" lon="3.51509">
        <ele>1242</ele>
        <time>2022-03-28T22:53:44Z</time>
      </trkpt>
      <trkpt lat="44.04882" lon="3.5152">
        <ele>1241</ele>
        <time>2022-03-28T22:53:49Z</time>
      </trkpt>
      <trkpt lat="44.04893" lon="3.51548">
        <ele>1237</ele>
        <time>2022-03-28T22:54:01Z</time>
      </trkpt>
      <trkpt lat="44.04902" lon="3.51567">
        <ele>1235</ele>
        <time>2022-03-28T22:54:09Z</time>
      </trkpt>
      <trkpt lat="44.04917" lon="3.5158">
        <ele>1233</ele>
        <time>2022-03-28T22:54:18Z</time>
      </trkpt>
      <trkpt lat="44.04953" lon="3.51598">
        <ele>1233</ele>
        <time>2022-03-28T22:54:37Z</time>
      </trkpt>
      <trkpt lat="44.04981" lon="3.51603">
        <ele>1232</ele>
        <time>2022-03-28T22:54:51Z</time>
      </trkpt>
      <trkpt lat="44.04997" lon="3.51609">
        <ele>1232</ele>
        <time>2022-03-28T22:54:59Z</time>
      </trkpt>
      <trkpt lat="44.05038" lon="3.5163">
        <ele>1229</ele>
        <time>2022-03-28T22:55:21Z</time>
      </trkpt>
      <trkpt lat="44.05079" lon="3.51639">
        <ele>1228</ele>
        <time>2022-03-28T22:55:42Z</time>
      </trkpt>
      <trkpt lat="44.0511" lon="3.51641">
        <ele>1227</ele>
        <time>2022-03-28T22:55:57Z</time>
      </trkpt>
      <trkpt lat="44.05133" lon="3.51633">
        <ele>1228</ele>
        <time>2022-03-28T22:56:09Z</time>
      </trkpt>
      <trkpt lat="44.05143" lon="3.51628">
        <ele>1228</ele>
        <time>2022-03-28T22:56:15Z</time>
      </trkpt>
      <trkpt lat="44.05148" lon="3.51634">
        <ele>1228</ele>
        <time>2022-03-28T22:56:18Z</time>
      </trkpt>
      <trkpt lat="44.05159" lon="3.51647">
        <ele>1226</ele>
        <time>2022-03-28T22:56:25Z</time>
      </trkpt>
      <trkpt lat="44.052" lon="3.51703">
        <ele>1228</ele>
        <time>2022-03-28T22:56:54Z</time>
      </trkpt>
      <trkpt lat="44.05217" lon="3.5172">
        <ele>1229</ele>
        <time>2022-03-28T22:57:04Z</time>
      </trkpt>
      <trkpt lat="44.05231" lon="3.51731">
        <ele>1230</ele>
        <time>2022-03-28T22:57:12Z</time>
      </trkpt>
      <trkpt lat="44.05281" lon="3.51759">
        <ele>1234</ele>
        <time>2022-03-28T22:57:39Z</time>
      </trkpt>
      <trkpt lat="44.05391" lon="3.51793">
        <ele>1239</ele>
        <time>2022-03-28T22:58:36Z</time>
      </trkpt>
      <trkpt lat="44.05419" lon="3.51808">
        <ele>1240</ele>
        <time>2022-03-28T22:58:51Z</time>
      </trkpt>
      <trkpt lat="44.05433" lon="3.51821">
        <ele>1242</ele>
        <time>2022-03-28T22:58:59Z</time>
      </trkpt>
      <trkpt lat="44.05452" lon="3.51845">
        <ele>1245</ele>
        <time>2022-03-28T22:59:12Z</time>
      </trkpt>
      <trkpt lat="44.05477" lon="3.51881">
        <ele>1247</ele>
        <time>2022-03-28T22:59:30Z</time>
      </trkpt>
      <trkpt lat="44.05487" lon="3.51905">
        <ele>1248</ele>
        <time>2022-03-28T22:59:40Z</time>
      </trkpt>
      <trkpt lat="44.05515" lon="3.51988">
        <ele>1251</ele>
        <time>2022-03-28T23:00:13Z</time>
      </trkpt>
      <trkpt lat="44.05554" lon="3.52095">
        <ele>1245</ele>
        <time>2022-03-28T23:00:56Z</time>
      </trkpt>
      <trkpt lat="44.05598" lon="3.52184">
        <ele>1245</ele>
        <time>2022-03-28T23:01:35Z</time>
      </trkpt>
      <trkpt lat="44.05619" lon="3.52232">
        <ele>1247</ele>
        <time>2022-03-28T23:01:55Z</time>
      </trkpt>
      <trkpt lat="44.0564" lon="3.52271">
        <ele>1248</ele>
        <time>2022-03-28T23:02:13Z</time>
      </trkpt>
      <trkpt lat="44.05647" lon="3.52292">
        <ele>1249</ele>
        <time>2022-03-28T23:02:21Z</time>
      </trkpt>
      <trkpt lat="44.0565" lon="3.52307">
        <ele>1250</ele>
        <time>2022-03-28T23:02:27Z</time>
      </trkpt>
      <trkpt lat="44.05652" lon="3.52372">
        <ele>1253</ele>
        <time>2022-03-28T23:02:50Z</time>
      </trkpt>
      <trkpt lat="44.05656" lon="3.5245">
        <ele>1255</ele>
        <time>2022-03-28T23:03:18Z</time>
      </trkpt>
      <trkpt lat="44.05655" lon="3.52474">
        <ele>1255</ele>
        <time>2022-03-28T23:03:27Z</time>
      </trkpt>
      <trkpt lat="44.05653" lon="3.52486">
        <ele>1255</ele>
        <time>2022-03-28T23:03:31Z</time>
      </trkpt>
      <trkpt lat="44.05523" lon="3.52809">
        <ele>1266</ele>
        <time>2022-03-28T23:05:44Z</time>
      </trkpt>
      <trkpt lat="44.05511" lon="3.52835">
        <ele>1267</ele>
        <time>2022-03-28T23:05:55Z</time>
      </trkpt>
      <trkpt lat="44.05501" lon="3.5285">
        <ele>1266</ele>
        <time>2022-03-28T23:06:03Z</time>
      </trkpt>
      <trkpt lat="44.05482" lon="3.52871">
        <ele>1266</ele>
        <time>2022-03-28T23:06:15Z</time>
      </trkpt>
      <trkpt lat="44.05432" lon="3.52914">
        <ele>1263</ele>
        <time>2022-03-28T23:06:44Z</time>
      </trkpt>
      <trkpt lat="44.05417" lon="3.52922">
        <ele>1261</ele>
        <time>2022-03-28T23:06:52Z</time>
      </trkpt>
      <trkpt lat="44.0541" lon="3.52923">
        <ele>1261</ele>
        <time>2022-03-28T23:06:56Z</time>
      </trkpt>
      <trkpt lat="44.05392" lon="3.52918">
        <ele>1260</ele>
        <time>2022-03-28T23:07:05Z</time>
      </trkpt>
      <trkpt lat="44.05351" lon="3.52898">
        <ele>1261</ele>
        <time>2022-03-28T23:07:27Z</time>
      </trkpt>
      <trkpt lat="44.05334" lon="3.52896">
        <ele>1260</ele>
        <time>2022-03-28T23:07:35Z</time>
      </trkpt>
      <trkpt lat="44.05271" lon="3.52911">
        <ele>1258</ele>
        <time>2022-03-28T23:08:07Z</time>
      </trkpt>
      <trkpt lat="44.05242" lon="3.52915">
        <ele>1258</ele>
        <time>2022-03-28T23:08:22Z</time>
      </trkpt>
      <trkpt lat="44.05234" lon="3.52918">
        <ele>1259</ele>
        <time>2022-03-28T23:08:26Z</time>
      </trkpt>
      <trkpt lat="44.05225" lon="3.52925">
        <ele>1259</ele>
        <time>2022-03-28T23:08:31Z</time>
      </trkpt>
      <trkpt lat="44.05216" lon="3.52939">
        <ele>1258</ele>
        <time>2022-03-28T23:08:38Z</time>
      </trkpt>
      <trkpt lat="44.05206" lon="3.52956">
        <ele>1257</ele>
        <time>2022-03-28T23:08:46Z</time>
      </trkpt>
      <trkpt lat="44.05181" lon="3.53017">
        <ele>1253</ele>
        <time>2022-03-28T23:09:11Z</time>
      </trkpt>
      <trkpt lat="44.05176" lon="3.53037">
        <ele>1253</ele>
        <time>2022-03-28T23:09:19Z</time>
      </trkpt>
      <trkpt lat="44.05169" lon="3.53091">
        <ele>1252</ele>
        <time>2022-03-28T23:09:39Z</time>
      </trkpt>
      <trkpt lat="44.05163" lon="3.53106">
        <ele>1252</ele>
        <time>2022-03-28T23:09:45Z</time>
      </trkpt>
      <trkpt lat="44.0509" lon="3.5321">
        <ele>1262</ele>
        <time>2022-03-28T23:10:37Z</time>
      </trkpt>
      <trkpt lat="44.05074" lon="3.53238">
        <ele>1263</ele>
        <time>2022-03-28T23:10:50Z</time>
      </trkpt>
      <trkpt lat="44.05056" lon="3.53276">
        <ele>1267</ele>
        <time>2022-03-28T23:11:06Z</time>
      </trkpt>
      <trkpt lat="44.05047" lon="3.53303">
        <ele>1269</ele>
        <time>2022-03-28T23:11:17Z</time>
      </trkpt>
      <trkpt lat="44.05036" lon="3.53364">
        <ele>1272</ele>
        <time>2022-03-28T23:11:40Z</time>
      </trkpt>
      <trkpt lat="44.05028" lon="3.53382">
        <ele>1273</ele>
        <time>2022-03-28T23:11:47Z</time>
      </trkpt>
      <trkpt lat="44.05017" lon="3.53402">
        <ele>1274</ele>
        <time>2022-03-28T23:11:56Z</time>
      </trkpt>
      <trkpt lat="44.04976" lon="3.53463">
        <ele>1280</ele>
        <time>2022-03-28T23:12:26Z</time>
      </trkpt>
      <trkpt lat="44.04937" lon="3.53503">
        <ele>1281</ele>
        <time>2022-03-28T23:12:51Z</time>
      </trkpt>
      <trkpt lat="44.04851" lon="3.53564">
        <ele>1286</ele>
        <time>2022-03-28T23:13:39Z</time>
      </trkpt>
      <trkpt lat="44.04811" lon="3.5361">
        <ele>1289</ele>
        <time>2022-03-28T23:14:05Z</time>
      </trkpt>
      <trkpt lat="44.04796" lon="3.53629">
        <ele>1292</ele>
        <time>2022-03-28T23:14:15Z</time>
      </trkpt>
      <trkpt lat="44.04782" lon="3.53642">
        <ele>1293</ele>
        <time>2022-03-28T23:14:23Z</time>
      </trkpt>
      <trkpt lat="44.04752" lon="3.53663">
        <ele>1295</ele>
        <time>2022-03-28T23:14:40Z</time>
      </trkpt>
      <trkpt lat="44.04742" lon="3.53677">
        <ele>1295</ele>
        <time>2022-03-28T23:14:47Z</time>
      </trkpt>
      <trkpt lat="44.0472" lon="3.53714">
        <ele>1297</ele>
        <time>2022-03-28T23:15:05Z</time>
      </trkpt>
      <trkpt lat="44.04709" lon="3.53741">
        <ele>1298</ele>
        <time>2022-03-28T23:15:16Z</time>
      </trkpt>
      <trkpt lat="44.04705" lon="3.53764">
        <ele>1299</ele>
        <time>2022-03-28T23:15:24Z</time>
      </trkpt>
      <trkpt lat="44.04698" lon="3.53874">
        <ele>1306</ele>
        <time>2022-03-28T23:16:04Z</time>
      </trkpt>
      <trkpt lat="44.04694" lon="3.53914">
        <ele>1307</ele>
        <time>2022-03-28T23:16:18Z</time>
      </trkpt>
      <trkpt lat="44.04669" lon="3.54049">
        <ele>1303</ele>
        <time>2022-03-28T23:17:09Z</time>
      </trkpt>
      <trkpt lat="44.04666" lon="3.54147">
        <ele>1295</ele>
        <time>2022-03-28T23:17:44Z</time>
      </trkpt>
      <trkpt lat="44.04668" lon="3.54163">
        <ele>1294</ele>
        <time>2022-03-28T23:17:50Z</time>
      </trkpt>
      <trkpt lat="44.04678" lon="3.54227">
        <ele>1290</ele>
        <time>2022-03-28T23:18:13Z</time>
      </trkpt>
      <trkpt lat="44.04685" lon="3.5425">
        <ele>1289</ele>
        <time>2022-03-28T23:18:22Z</time>
      </trkpt>
      <trkpt lat="44.04699" lon="3.54279">
        <ele>1287</ele>
        <time>2022-03-28T23:18:35Z</time>
      </trkpt>
      <trkpt lat="44.0471" lon="3.54296">
        <ele>1286</ele>
        <time>2022-03-28T23:18:43Z</time>
      </trkpt>
      <trkpt lat="44.04719" lon="3.54304">
        <ele>1286</ele>
        <time>2022-03-28T23:18:48Z</time>
      </trkpt>
      <trkpt lat="44.0473" lon="3.54307">
        <ele>1286</ele>
        <time>2022-03-28T23:18:54Z</time>
      </trkpt>
      <trkpt lat="44.04749" lon="3.54303">
        <ele>1288</ele>
        <time>2022-03-28T23:19:04Z</time>
      </trkpt>
      <trkpt lat="44.04782" lon="3.54288">
        <ele>1294</ele>
        <time>2022-03-28T23:19:21Z</time>
      </trkpt>
      <trkpt lat="44.04792" lon="3.54287">
        <ele>1295</ele>
        <time>2022-03-28T23:19:26Z</time>
      </trkpt>
      <trkpt lat="44.048" lon="3.54291">
        <ele>1295</ele>
        <time>2022-03-28T23:19:30Z</time>
      </trkpt>
      <trkpt lat="44.04836" lon="3.54353">
        <ele>1289</ele>
        <time>2022-03-28T23:19:59Z</time>
      </trkpt>
      <trkpt lat="44.04854" lon="3.54389">
        <ele>1286</ele>
        <time>2022-03-28T23:20:15Z</time>
      </trkpt>
      <trkpt lat="44.04867" lon="3.54425">
        <ele>1281</ele>
        <time>2022-03-28T23:20:29Z</time>
      </trkpt>
      <trkpt lat="44.04878" lon="3.54443">
        <ele>1280</ele>
        <time>2022-03-28T23:20:38Z</time>
      </trkpt>
      <trkpt lat="44.04893" lon="3.54458">
        <ele>1280</ele>
        <time>2022-03-28T23:20:47Z</time>
      </trkpt>
      <trkpt lat="44.04968" lon="3.54508">
        <ele>1284</ele>
        <time>2022-03-28T23:21:29Z</time>
      </trkpt>
      <trkpt lat="44.04983" lon="3.54514">
        <ele>1286</ele>
        <time>2022-03-28T23:21:36Z</time>
      </trkpt>
      <trkpt lat="44.05005" lon="3.54518">
        <ele>1290</ele>
        <time>2022-03-28T23:21:47Z</time>
      </trkpt>
      <trkpt lat="44.0502" lon="3.54525">
        <ele>1292</ele>
        <time>2022-03-28T23:21:55Z</time>
      </trkpt>
      <trkpt lat="44.05032" lon="3.54537">
        <ele>1292</ele>
        <time>2022-03-28T23:22:03Z</time>
      </trkpt>
      <trkpt lat="44.05044" lon="3.54562">
        <ele>1290</ele>
        <time>2022-03-28T23:22:14Z</time>
      </trkpt>
      <trkpt lat="44.05049" lon="3.5463">
        <ele>1277</ele>
        <time>2022-03-28T23:22:38Z</time>
      </trkpt>
      <trkpt lat="44.05053" lon="3.5464">
        <ele>1275</ele>
        <time>2022-03-28T23:22:42Z</time>
      </trkpt>
      <trkpt lat="44.05059" lon="3.54645">
        <ele>1275</ele>
        <time>2022-03-28T23:22:46Z</time>
      </trkpt>
      <trkpt lat="44.05072" lon="3.5465">
        <ele>1276</ele>
        <time>2022-03-28T23:22:53Z</time>
      </trkpt>
      <trkpt lat="44.05107" lon="3.54649">
        <ele>1280</ele>
        <time>2022-03-28T23:23:10Z</time>
      </trkpt>
      <trkpt lat="44.05178" lon="3.5466">
        <ele>1283</ele>
        <time>2022-03-28T23:23:46Z</time>
      </trkpt>
      <trkpt lat="44.05283" lon="3.54691">
        <ele>1277</ele>
        <time>2022-03-28T23:24:40Z</time>
      </trkpt>
      <trkpt lat="44.05375" lon="3.54715">
        <ele>1276</ele>
        <time>2022-03-28T23:25:26Z</time>
      </trkpt>
      <trkpt lat="44.05394" lon="3.54722">
        <ele>1276</ele>
        <time>2022-03-28T23:25:36Z</time>
      </trkpt>
      <trkpt lat="44.05401" lon="3.5473">
        <ele>1275</ele>
        <time>2022-03-28T23:25:41Z</time>
      </trkpt>
      <trkpt lat="44.05407" lon="3.54743">
        <ele>1274</ele>
        <time>2022-03-28T23:25:46Z</time>
      </trkpt>
      <trkpt lat="44.05422" lon="3.54736">
        <ele>1275</ele>
        <time>2022-03-28T23:25:54Z</time>
      </trkpt>
      <trkpt lat="44.05419" lon="3.54771">
        <ele>1273</ele>
        <time>2022-03-28T23:26:07Z</time>
      </trkpt>
      <trkpt lat="44.05424" lon="3.54844">
        <ele>1270</ele>
        <time>2022-03-28T23:26:33Z</time>
      </trkpt>
      <trkpt lat="44.05427" lon="3.54865">
        <ele>1270</ele>
        <time>2022-03-28T23:26:41Z</time>
      </trkpt>
      <trkpt lat="44.05434" lon="3.54888">
        <ele>1271</ele>
        <time>2022-03-28T23:26:50Z</time>
      </trkpt>
      <trkpt lat="44.05463" lon="3.54946">
        <ele>1277</ele>
        <time>2022-03-28T23:27:15Z</time>
      </trkpt>
      <trkpt lat="44.05496" lon="3.54974">
        <ele>1284</ele>
        <time>2022-03-28T23:27:35Z</time>
      </trkpt>
      <trkpt lat="44.05603" lon="3.55053">
        <ele>1298</ele>
        <time>2022-03-28T23:28:35Z</time>
      </trkpt>
      <trkpt lat="44.05598" lon="3.55105">
        <ele>1299</ele>
        <time>2022-03-28T23:28:54Z</time>
      </trkpt>
      <trkpt lat="44.05587" lon="3.55177">
        <ele>1303</ele>
        <time>2022-03-28T23:29:21Z</time>
      </trkpt>
      <trkpt lat="44.05571" lon="3.5524">
        <ele>1307</ele>
        <time>2022-03-28T23:29:45Z</time>
      </trkpt>
      <trkpt lat="44.05563" lon="3.55313">
        <ele>1312</ele>
        <time>2022-03-28T23:30:11Z</time>
      </trkpt>
      <trkpt lat="44.05556" lon="3.55359">
        <ele>1313</ele>
        <time>2022-03-28T23:30:28Z</time>
      </trkpt>
      <trkpt lat="44.05555" lon="3.55378">
        <ele>1314</ele>
        <time>2022-03-28T23:30:35Z</time>
      </trkpt>
      <trkpt lat="44.05564" lon="3.55448">
        <ele>1315</ele>
        <time>2022-03-28T23:31:01Z</time>
      </trkpt>
      <trkpt lat="44.05576" lon="3.55466">
        <ele>1317</ele>
        <time>2022-03-28T23:31:09Z</time>
      </trkpt>
      <trkpt lat="44.05588" lon="3.55473">
        <ele>1318</ele>
        <time>2022-03-28T23:31:16Z</time>
      </trkpt>
      <trkpt lat="44.05628" lon="3.55482">
        <ele>1320</ele>
        <time>2022-03-28T23:31:36Z</time>
      </trkpt>
      <trkpt lat="44.05644" lon="3.55489">
        <ele>1320</ele>
        <time>2022-03-28T23:31:45Z</time>
      </trkpt>
      <trkpt lat="44.05653" lon="3.55497">
        <ele>1320</ele>
        <time>2022-03-28T23:31:50Z</time>
      </trkpt>
      <trkpt lat="44.05667" lon="3.55518">
        <ele>1320</ele>
        <time>2022-03-28T23:32:00Z</time>
      </trkpt>
      <trkpt lat="44.05683" lon="3.55531">
        <ele>1319</ele>
        <time>2022-03-28T23:32:10Z</time>
      </trkpt>
      <trkpt lat="44.05699" lon="3.55556">
        <ele>1317</ele>
        <time>2022-03-28T23:32:22Z</time>
      </trkpt>
      <trkpt lat="44.05702" lon="3.55578">
        <ele>1315</ele>
        <time>2022-03-28T23:32:30Z</time>
      </trkpt>
      <trkpt lat="44.05706" lon="3.55587">
        <ele>1314</ele>
        <time>2022-03-28T23:32:33Z</time>
      </trkpt>
      <trkpt lat="44.05729" lon="3.5561">
        <ele>1311</ele>
        <time>2022-03-28T23:32:48Z</time>
      </trkpt>
      <trkpt lat="44.05685" lon="3.55752">
        <ele>1312</ele>
        <time>2022-03-28T23:33:43Z</time>
      </trkpt>
      <trkpt lat="44.05666" lon="3.55827">
        <ele>1302</ele>
        <time>2022-03-28T23:34:12Z</time>
      </trkpt>
      <trkpt lat="44.05622" lon="3.55976">
        <ele>1276</ele>
        <time>2022-03-28T23:35:10Z</time>
      </trkpt>
      <trkpt lat="44.05593" lon="3.5607">
        <ele>1266</ele>
        <time>2022-03-28T23:35:47Z</time>
      </trkpt>
      <trkpt lat="44.05576" lon="3.56136">
        <ele>1263</ele>
        <time>2022-03-28T23:36:12Z</time>
      </trkpt>
      <trkpt lat="44.05585" lon="3.56154">
        <ele>1262</ele>
        <time>2022-03-28T23:36:20Z</time>
      </trkpt>
      <trkpt lat="44.05632" lon="3.56223">
        <ele>1259</ele>
        <time>2022-03-28T23:36:54Z</time>
      </trkpt>
      <trkpt lat="44.05648" lon="3.56237">
        <ele>1258</ele>
        <time>2022-03-28T23:37:03Z</time>
      </trkpt>
      <trkpt lat="44.05705" lon="3.5627">
        <ele>1256</ele>
        <time>2022-03-28T23:37:34Z</time>
      </trkpt>
      <trkpt lat="44.05737" lon="3.56295">
        <ele>1257</ele>
        <time>2022-03-28T23:37:53Z</time>
      </trkpt>
      <trkpt lat="44.05782" lon="3.5634">
        <ele>1257</ele>
        <time>2022-03-28T23:38:20Z</time>
      </trkpt>
      <trkpt lat="44.05806" lon="3.56371">
        <ele>1256</ele>
        <time>2022-03-28T23:38:37Z</time>
      </trkpt>
      <trkpt lat="44.05822" lon="3.56397">
        <ele>1256</ele>
        <time>2022-03-28T23:38:49Z</time>
      </trkpt>
      <trkpt lat="44.05829" lon="3.56415">
        <ele>1256</ele>
        <time>2022-03-28T23:38:56Z</time>
      </trkpt>
      <trkpt lat="44.05834" lon="3.56432">
        <ele>1255</ele>
        <time>2022-03-28T23:39:03Z</time>
      </trkpt>
      <trkpt lat="44.05839" lon="3.56457">
        <ele>1256</ele>
        <time>2022-03-28T23:39:12Z</time>
      </trkpt>
      <trkpt lat="44.05845" lon="3.5653">
        <ele>1256</ele>
        <time>2022-03-28T23:39:39Z</time>
      </trkpt>
      <trkpt lat="44.05853" lon="3.56594">
        <ele>1256</ele>
        <time>2022-03-28T23:40:02Z</time>
      </trkpt>
      <trkpt lat="44.05865" lon="3.56625">
        <ele>1255</ele>
        <time>2022-03-28T23:40:15Z</time>
      </trkpt>
      <trkpt lat="44.05882" lon="3.56647">
        <ele>1255</ele>
        <time>2022-03-28T23:40:26Z</time>
      </trkpt>
      <trkpt lat="44.06002" lon="3.56673">
        <ele>1258</ele>
        <time>2022-03-28T23:41:27Z</time>
      </trkpt>
      <trkpt lat="44.0602" lon="3.56672">
        <ele>1259</ele>
        <time>2022-03-28T23:41:36Z</time>
      </trkpt>
      <trkpt lat="44.06037" lon="3.56663">
        <ele>1261</ele>
        <time>2022-03-28T23:41:45Z</time>
      </trkpt>
      <trkpt lat="44.06065" lon="3.56639">
        <ele>1263</ele>
        <time>2022-03-28T23:42:02Z</time>
      </trkpt>
      <trkpt lat="44.06095" lon="3.56628">
        <ele>1265</ele>
        <time>2022-03-28T23:42:17Z</time>
      </trkpt>
      <trkpt lat="44.06108" lon="3.56628">
        <ele>1266</ele>
        <time>2022-03-28T23:42:24Z</time>
      </trkpt>
      <trkpt lat="44.06127" lon="3.56633">
        <ele>1267</ele>
        <time>2022-03-28T23:42:33Z</time>
      </trkpt>
      <trkpt lat="44.06137" lon="3.56639">
        <ele>1268</ele>
        <time>2022-03-28T23:42:39Z</time>
      </trkpt>
      <trkpt lat="44.06155" lon="3.56655">
        <ele>1270</ele>
        <time>2022-03-28T23:42:50Z</time>
      </trkpt>
      <trkpt lat="44.06165" lon="3.56702">
        <ele>1272</ele>
        <time>2022-03-28T23:43:07Z</time>
      </trkpt>
      <trkpt lat="44.06176" lon="3.56766">
        <ele>1275</ele>
        <time>2022-03-28T23:43:31Z</time>
      </trkpt>
      <trkpt lat="44.06183" lon="3.56816">
        <ele>1275</ele>
        <time>2022-03-28T23:43:49Z</time>
      </trkpt>
      <trkpt lat="44.06191" lon="3.56842">
        <ele>1275</ele>
        <time>2022-03-28T23:43:59Z</time>
      </trkpt>
      <trkpt lat="44.062" lon="3.56853">
        <ele>1275</ele>
        <time>2022-03-28T23:44:05Z</time>
      </trkpt>
      <trkpt lat="44.06232" lon="3.56873">
        <ele>1276</ele>
        <time>2022-03-28T23:44:23Z</time>
      </trkpt>
      <trkpt lat="44.06248" lon="3.56876">
        <ele>1277</ele>
        <time>2022-03-28T23:44:31Z</time>
      </trkpt>
      <trkpt lat="44.06297" lon="3.56876">
        <ele>1282</ele>
        <time>2022-03-28T23:44:55Z</time>
      </trkpt>
      <trkpt lat="44.06309" lon="3.56881">
        <ele>1283</ele>
        <time>2022-03-28T23:45:02Z</time>
      </trkpt>
      <trkpt lat="44.06321" lon="3.56889">
        <ele>1284</ele>
        <time>2022-03-28T23:45:08Z</time>
      </trkpt>
      <trkpt lat="44.06328" lon="3.56901">
        <ele>1284</ele>
        <time>2022-03-28T23:45:14Z</time>
      </trkpt>
      <trkpt lat="44.06338" lon="3.56927">
        <ele>1284</ele>
        <time>2022-03-28T23:45:25Z</time>
      </trkpt>
      <trkpt lat="44.06357" lon="3.56977">
        <ele>1286</ele>
        <time>2022-03-28T23:45:45Z</time>
      </trkpt>
      <trkpt lat="44.06369" lon="3.57">
        <ele>1288</ele>
        <time>2022-03-28T23:45:55Z</time>
      </trkpt>
      <trkpt lat="44.06382" lon="3.57013">
        <ele>1291</ele>
        <time>2022-03-28T23:46:03Z</time>
      </trkpt>
      <trkpt lat="44.06407" lon="3.5703">
        <ele>1295</ele>
        <time>2022-03-28T23:46:17Z</time>
      </trkpt>
      <trkpt lat="44.06435" lon="3.57047">
        <ele>1299</ele>
        <time>2022-03-28T23:46:32Z</time>
      </trkpt>
      <trkpt lat="44.06443" lon="3.57056">
        <ele>1300</ele>
        <time>2022-03-28T23:46:37Z</time>
      </trkpt>
      <trkpt lat="44.0645" lon="3.57073">
        <ele>1300</ele>
        <time>2022-03-28T23:46:45Z</time>
      </trkpt>
      <trkpt lat="44.06453" lon="3.57091">
        <ele>1300</ele>
        <time>2022-03-28T23:46:51Z</time>
      </trkpt>
      <trkpt lat="44.06447" lon="3.5714">
        <ele>1302</ele>
        <time>2022-03-28T23:47:09Z</time>
      </trkpt>
      <trkpt lat="44.06441" lon="3.57176">
        <ele>1304</ele>
        <time>2022-03-28T23:47:22Z</time>
      </trkpt>
      <trkpt lat="44.06443" lon="3.57193">
        <ele>1305</ele>
        <time>2022-03-28T23:47:29Z</time>
      </trkpt>
      <trkpt lat="44.0645" lon="3.57208">
        <ele>1308</ele>
        <time>2022-03-28T23:47:35Z</time>
      </trkpt>
      <trkpt lat="44.06485" lon="3.57193">
        <ele>1311</ele>
        <time>2022-03-28T23:47:53Z</time>
      </trkpt>
      <trkpt lat="44.06495" lon="3.57182">
        <ele>1311</ele>
        <time>2022-03-28T23:48:00Z</time>
      </trkpt>
      <trkpt lat="44.06504" lon="3.57163">
        <ele>1311</ele>
        <time>2022-03-28T23:48:08Z</time>
      </trkpt>
      <trkpt lat="44.0651" lon="3.57141">
        <ele>1311</ele>
        <time>2022-03-28T23:48:16Z</time>
      </trkpt>
      <trkpt lat="44.06519" lon="3.57122">
        <ele>1311</ele>
        <time>2022-03-28T23:48:24Z</time>
      </trkpt>
      <trkpt lat="44.06534" lon="3.57099">
        <ele>1311</ele>
        <time>2022-03-28T23:48:36Z</time>
      </trkpt>
      <trkpt lat="44.06576" lon="3.57051">
        <ele>1315</ele>
        <time>2022-03-28T23:49:03Z</time>
      </trkpt>
      <trkpt lat="44.06574" lon="3.57074">
        <ele>1314</ele>
        <time>2022-03-28T23:49:11Z</time>
      </trkpt>
      <trkpt lat="44.06552" lon="3.57164">
        <ele>1318</ele>
        <time>2022-03-28T23:49:45Z</time>
      </trkpt>
      <trkpt lat="44.0653" lon="3.57209">
        <ele>1319</ele>
        <time>2022-03-28T23:50:05Z</time>
      </trkpt>
      <trkpt lat="44.06487" lon="3.57304">
        <ele>1324</ele>
        <time>2022-03-28T23:50:45Z</time>
      </trkpt>
      <trkpt lat="44.0646" lon="3.57353">
        <ele>1326</ele>
        <time>2022-03-28T23:51:08Z</time>
      </trkpt>
      <trkpt lat="44.06444" lon="3.57375">
        <ele>1327</ele>
        <time>2022-03-28T23:51:19Z</time>
      </trkpt>
      <trkpt lat="44.06403" lon="3.57441">
        <ele>1328</ele>
        <time>2022-03-28T23:51:50Z</time>
      </trkpt>
      <trkpt lat="44.06368" lon="3.57507">
        <ele>1331</ele>
        <time>2022-03-28T23:52:20Z</time>
      </trkpt>
      <trkpt lat="44.06355" lon="3.57536">
        <ele>1332</ele>
        <time>2022-03-28T23:52:32Z</time>
      </trkpt>
      <trkpt lat="44.06255" lon="3.57822">
        <ele>1344</ele>
        <time>2022-03-28T23:54:26Z</time>
      </trkpt>
      <trkpt lat="44.06232" lon="3.57899">
        <ele>1346</ele>
        <time>2022-03-28T23:54:56Z</time>
      </trkpt>
      <trkpt lat="44.06221" lon="3.57982">
        <ele>1347</ele>
        <time>2022-03-28T23:55:27Z</time>
      </trkpt>
      <trkpt lat="44.06223" lon="3.58019">
        <ele>1346</ele>
        <time>2022-03-28T23:55:40Z</time>
      </trkpt>
      <trkpt lat="44.06242" lon="3.58064">
        <ele>1345</ele>
        <time>2022-03-28T23:55:59Z</time>
      </trkpt>
      <trkpt lat="44.06303" lon="3.58089">
        <ele>1356</ele>
        <time>2022-03-28T23:56:31Z</time>
      </trkpt>
      <trkpt lat="44.06297" lon="3.5814">
        <ele>1350</ele>
        <time>2022-03-28T23:56:49Z</time>
      </trkpt>
      <trkpt lat="44.06291" lon="3.58233">
        <ele>1344</ele>
        <time>2022-03-28T23:57:23Z</time>
      </trkpt>
      <trkpt lat="44.06311" lon="3.58283">
        <ele>1346</ele>
        <time>2022-03-28T23:57:43Z</time>
      </trkpt>
      <trkpt lat="44.06345" lon="3.5833">
        <ele>1350</ele>
        <time>2022-03-28T23:58:07Z</time>
      </trkpt>
      <trkpt lat="44.06365" lon="3.58351">
        <ele>1353</ele>
        <time>2022-03-28T23:58:20Z</time>
      </trkpt>
      <trkpt lat="44.06407" lon="3.58452">
        <ele>1355</ele>
        <time>2022-03-28T23:59:02Z</time>
      </trkpt>
      <trkpt lat="44.06442" lon="3.58501">
        <ele>1356</ele>
        <time>2022-03-28T23:59:27Z</time>
      </trkpt>
      <trkpt lat="44.06525" lon="3.58536">
        <ele>1364</ele>
        <time>2022-03-29T00:00:10Z</time>
      </trkpt>
      <trkpt lat="44.06559" lon="3.58559">
        <ele>1367</ele>
        <time>2022-03-29T00:00:29Z</time>
      </trkpt>
      <trkpt lat="44.06561" lon="3.58576">
        <ele>1366</ele>
        <time>2022-03-29T00:00:35Z</time>
      </trkpt>
      <trkpt lat="44.06556" lon="3.58591">
        <ele>1365</ele>
        <time>2022-03-29T00:00:41Z</time>
      </trkpt>
      <trkpt lat="44.06536" lon="3.58714">
        <ele>1364</ele>
        <time>2022-03-29T00:01:26Z</time>
      </trkpt>
      <trkpt lat="44.06536" lon="3.58744">
        <ele>1364</ele>
        <time>2022-03-29T00:01:37Z</time>
      </trkpt>
      <trkpt lat="44.06612" lon="3.58854">
        <ele>1364</ele>
        <time>2022-03-29T00:02:32Z</time>
      </trkpt>
      <trkpt lat="44.06667" lon="3.59001">
        <ele>1362</ele>
        <time>2022-03-29T00:03:32Z</time>
      </trkpt>
      <trkpt lat="44.06685" lon="3.59107">
        <ele>1358</ele>
        <time>2022-03-29T00:04:11Z</time>
      </trkpt>
      <trkpt lat="44.06704" lon="3.59158">
        <ele>1358</ele>
        <time>2022-03-29T00:04:31Z</time>
      </trkpt>
      <trkpt lat="44.06743" lon="3.59176">
        <ele>1358</ele>
        <time>2022-03-29T00:04:52Z</time>
      </trkpt>
      <trkpt lat="44.06793" lon="3.59202">
        <ele>1357</ele>
        <time>2022-03-29T00:05:19Z</time>
      </trkpt>
      <trkpt lat="44.06801" lon="3.5918">
        <ele>1357</ele>
        <time>2022-03-29T00:05:28Z</time>
      </trkpt>
      <trkpt lat="44.06801" lon="3.59159">
        <ele>1356</ele>
        <time>2022-03-29T00:05:35Z</time>
      </trkpt>
      <trkpt lat="44.06801" lon="3.5918">
        <ele>1357</ele>
        <time>2022-03-29T00:05:43Z</time>
      </trkpt>
      <trkpt lat="44.06774" lon="3.59262">
        <ele>1354</ele>
        <time>2022-03-29T00:06:15Z</time>
      </trkpt>
      <trkpt lat="44.06769" lon="3.59283">
        <ele>1352</ele>
        <time>2022-03-29T00:06:23Z</time>
      </trkpt>
      <trkpt lat="44.06764" lon="3.59323">
        <ele>1347</ele>
        <time>2022-03-29T00:06:38Z</time>
      </trkpt>
      <trkpt lat="44.06765" lon="3.59357">
        <ele>1345</ele>
        <time>2022-03-29T00:06:50Z</time>
      </trkpt>
      <trkpt lat="44.06774" lon="3.59419">
        <ele>1342</ele>
        <time>2022-03-29T00:07:13Z</time>
      </trkpt>
      <trkpt lat="44.06776" lon="3.5944">
        <ele>1342</ele>
        <time>2022-03-29T00:07:20Z</time>
      </trkpt>
      <trkpt lat="44.06772" lon="3.59477">
        <ele>1339</ele>
        <time>2022-03-29T00:07:34Z</time>
      </trkpt>
      <trkpt lat="44.06761" lon="3.5953">
        <ele>1335</ele>
        <time>2022-03-29T00:07:54Z</time>
      </trkpt>
      <trkpt lat="44.06744" lon="3.59588">
        <ele>1332</ele>
        <time>2022-03-29T00:08:16Z</time>
      </trkpt>
      <trkpt lat="44.06724" lon="3.59628">
        <ele>1331</ele>
        <time>2022-03-29T00:08:34Z</time>
      </trkpt>
      <trkpt lat="44.06713" lon="3.59639">
        <ele>1331</ele>
        <time>2022-03-29T00:08:40Z</time>
      </trkpt>
      <trkpt lat="44.06702" lon="3.59648">
        <ele>1332</ele>
        <time>2022-03-29T00:08:47Z</time>
      </trkpt>
      <trkpt lat="44.0669" lon="3.59654">
        <ele>1333</ele>
        <time>2022-03-29T00:08:53Z</time>
      </trkpt>
      <trkpt lat="44.06677" lon="3.59657">
        <ele>1334</ele>
        <time>2022-03-29T00:09:00Z</time>
      </trkpt>
      <trkpt lat="44.06617" lon="3.59662">
        <ele>1333</ele>
        <time>2022-03-29T00:09:30Z</time>
      </trkpt>
      <trkpt lat="44.06598" lon="3.59669">
        <ele>1334</ele>
        <time>2022-03-29T00:09:40Z</time>
      </trkpt>
      <trkpt lat="44.0657" lon="3.59687">
        <ele>1334</ele>
        <time>2022-03-29T00:09:55Z</time>
      </trkpt>
      <trkpt lat="44.06549" lon="3.59706">
        <ele>1334</ele>
        <time>2022-03-29T00:10:08Z</time>
      </trkpt>
      <trkpt lat="44.06528" lon="3.59733">
        <ele>1336</ele>
        <time>2022-03-29T00:10:22Z</time>
      </trkpt>
      <trkpt lat="44.06519" lon="3.59749">
        <ele>1337</ele>
        <time>2022-03-29T00:10:29Z</time>
      </trkpt>
      <trkpt lat="44.0651" lon="3.59772">
        <ele>1336</ele>
        <time>2022-03-29T00:10:39Z</time>
      </trkpt>
      <trkpt lat="44.06505" lon="3.59792">
        <ele>1336</ele>
        <time>2022-03-29T00:10:46Z</time>
      </trkpt>
      <trkpt lat="44.06503" lon="3.59821">
        <ele>1335</ele>
        <time>2022-03-29T00:10:57Z</time>
      </trkpt>
      <trkpt lat="44.06508" lon="3.59856">
        <ele>1336</ele>
        <time>2022-03-29T00:11:10Z</time>
      </trkpt>
      <trkpt lat="44.0653" lon="3.5992">
        <ele>1337</ele>
        <time>2022-03-29T00:11:35Z</time>
      </trkpt>
      <trkpt lat="44.06535" lon="3.59938">
        <ele>1336</ele>
        <time>2022-03-29T00:11:42Z</time>
      </trkpt>
      <trkpt lat="44.06537" lon="3.59966">
        <ele>1335</ele>
        <time>2022-03-29T00:11:52Z</time>
      </trkpt>
      <trkpt lat="44.06537" lon="3.59984">
        <ele>1334</ele>
        <time>2022-03-29T00:11:59Z</time>
      </trkpt>
      <trkpt lat="44.06532" lon="3.60032">
        <ele>1332</ele>
        <time>2022-03-29T00:12:16Z</time>
      </trkpt>
      <trkpt lat="44.06523" lon="3.60091">
        <ele>1329</ele>
        <time>2022-03-29T00:12:38Z</time>
      </trkpt>
      <trkpt lat="44.06521" lon="3.60145">
        <ele>1327</ele>
        <time>2022-03-29T00:12:57Z</time>
      </trkpt>
      <trkpt lat="44.06509" lon="3.60235">
        <ele>1324</ele>
        <time>2022-03-29T00:13:30Z</time>
      </trkpt>
      <trkpt lat="44.06497" lon="3.60351">
        <ele>1322</ele>
        <time>2022-03-29T00:14:12Z</time>
      </trkpt>
      <trkpt lat="44.06487" lon="3.604">
        <ele>1320</ele>
        <time>2022-03-29T00:14:31Z</time>
      </trkpt>
      <trkpt lat="44.06467" lon="3.60437">
        <ele>1319</ele>
        <time>2022-03-29T00:14:47Z</time>
      </trkpt>
      <trkpt lat="44.06421" lon="3.60494">
        <ele>1316</ele>
        <time>2022-03-29T00:15:18Z</time>
      </trkpt>
      <trkpt lat="44.064" lon="3.60513">
        <ele>1314</ele>
        <time>2022-03-29T00:15:31Z</time>
      </trkpt>
      <trkpt lat="44.06375" lon="3.6053">
        <ele>1311</ele>
        <time>2022-03-29T00:15:45Z</time>
      </trkpt>
      <trkpt lat="44.06431" lon="3.60583">
        <ele>1317</ele>
        <time>2022-03-29T00:16:18Z</time>
      </trkpt>
      <trkpt lat="44.0646" lon="3.60606">
        <ele>1318</ele>
        <time>2022-03-29T00:16:35Z</time>
      </trkpt>
      <trkpt lat="44.06491" lon="3.60627">
        <ele>1320</ele>
        <time>2022-03-29T00:16:52Z</time>
      </trkpt>
      <trkpt lat="44.06497" lon="3.60635">
        <ele>1321</ele>
        <time>2022-03-29T00:16:57Z</time>
      </trkpt>
      <trkpt lat="44.06502" lon="3.60646">
        <ele>1320</ele>
        <time>2022-03-29T00:17:01Z</time>
      </trkpt>
      <trkpt lat="44.06509" lon="3.60652">
        <ele>1317</ele>
        <time>2022-03-29T00:17:05Z</time>
      </trkpt>
      <trkpt lat="44.06511" lon="3.60697">
        <ele>1311</ele>
        <time>2022-03-29T00:17:22Z</time>
      </trkpt>
      <trkpt lat="44.06516" lon="3.607">
        <ele>1308</ele>
        <time>2022-03-29T00:17:24Z</time>
      </trkpt>
      <trkpt lat="44.06528" lon="3.60701">
        <ele>1304</ele>
        <time>2022-03-29T00:17:30Z</time>
      </trkpt>
      <trkpt lat="44.0653" lon="3.60708">
        <ele>1303</ele>
        <time>2022-03-29T00:17:33Z</time>
      </trkpt>
      <trkpt lat="44.06531" lon="3.60717">
        <ele>1301</ele>
        <time>2022-03-29T00:17:36Z</time>
      </trkpt>
      <trkpt lat="44.06531" lon="3.60734">
        <ele>1299</ele>
        <time>2022-03-29T00:17:42Z</time>
      </trkpt>
      <trkpt lat="44.06536" lon="3.60748">
        <ele>1296</ele>
        <time>2022-03-29T00:17:48Z</time>
      </trkpt>
      <trkpt lat="44.06509" lon="3.60754">
        <ele>1301</ele>
        <time>2022-03-29T00:18:02Z</time>
      </trkpt>
      <trkpt lat="44.065" lon="3.60753">
        <ele>1303</ele>
        <time>2022-03-29T00:18:06Z</time>
      </trkpt>
      <trkpt lat="44.06491" lon="3.60744">
        <ele>1303</ele>
        <time>2022-03-29T00:18:12Z</time>
      </trkpt>
      <trkpt lat="44.06488" lon="3.60731">
        <ele>1305</ele>
        <time>2022-03-29T00:18:17Z</time>
      </trkpt>
      <trkpt lat="44.06483" lon="3.60719">
        <ele>1306</ele>
        <time>2022-03-29T00:18:22Z</time>
      </trkpt>
      <trkpt lat="44.06448" lon="3.60687">
        <ele>1306</ele>
        <time>2022-03-29T00:18:43Z</time>
      </trkpt>
      <trkpt lat="44.06443" lon="3.60685">
        <ele>1306</ele>
        <time>2022-03-29T00:18:45Z</time>
      </trkpt>
      <trkpt lat="44.06435" lon="3.60688">
        <ele>1304</ele>
        <time>2022-03-29T00:18:49Z</time>
      </trkpt>
      <trkpt lat="44.06414" lon="3.6068">
        <ele>1302</ele>
        <time>2022-03-29T00:19:00Z</time>
      </trkpt>
      <trkpt lat="44.06402" lon="3.6068">
        <ele>1297</ele>
        <time>2022-03-29T00:19:06Z</time>
      </trkpt>
      <trkpt lat="44.06392" lon="3.60677">
        <ele>1295</ele>
        <time>2022-03-29T00:19:11Z</time>
      </trkpt>
      <trkpt lat="44.06386" lon="3.60675">
        <ele>1293</ele>
        <time>2022-03-29T00:19:14Z</time>
      </trkpt>
      <trkpt lat="44.06381" lon="3.60668">
        <ele>1294</ele>
        <time>2022-03-29T00:19:18Z</time>
      </trkpt>
      <trkpt lat="44.06375" lon="3.60665">
        <ele>1292</ele>
        <time>2022-03-29T00:19:21Z</time>
      </trkpt>
      <trkpt lat="44.06364" lon="3.60664">
        <ele>1289</ele>
        <time>2022-03-29T00:19:27Z</time>
      </trkpt>
      <trkpt lat="44.06354" lon="3.60659">
        <ele>1286</ele>
        <time>2022-03-29T00:19:32Z</time>
      </trkpt>
      <trkpt lat="44.06352" lon="3.6066">
        <ele>1285</ele>
        <time>2022-03-29T00:19:33Z</time>
      </trkpt>
      <trkpt lat="44.06351" lon="3.60663">
        <ele>1284</ele>
        <time>2022-03-29T00:19:34Z</time>
      </trkpt>
      <trkpt lat="44.06353" lon="3.60674">
        <ele>1281</ele>
        <time>2022-03-29T00:19:38Z</time>
      </trkpt>
      <trkpt lat="44.06352" lon="3.60678">
        <ele>1279</ele>
        <time>2022-03-29T00:19:40Z</time>
      </trkpt>
      <trkpt lat="44.06337" lon="3.60667">
        <ele>1278</ele>
        <time>2022-03-29T00:19:48Z</time>
      </trkpt>
      <trkpt lat="44.06335" lon="3.60671">
        <ele>1276</ele>
        <time>2022-03-29T00:19:50Z</time>
      </trkpt>
      <trkpt lat="44.06341" lon="3.60683">
        <ele>1273</ele>
        <time>2022-03-29T00:19:55Z</time>
      </trkpt>
      <trkpt lat="44.06342" lon="3.60688">
        <ele>1272</ele>
        <time>2022-03-29T00:19:57Z</time>
      </trkpt>
      <trkpt lat="44.0635" lon="3.60697">
        <ele>1271</ele>
        <time>2022-03-29T00:20:02Z</time>
      </trkpt>
      <trkpt lat="44.06357" lon="3.60708">
        <ele>1270</ele>
        <time>2022-03-29T00:20:08Z</time>
      </trkpt>
      <trkpt lat="44.06359" lon="3.60714">
        <ele>1268</ele>
        <time>2022-03-29T00:20:10Z</time>
      </trkpt>
      <trkpt lat="44.06383" lon="3.60746">
        <ele>1267</ele>
        <time>2022-03-29T00:20:27Z</time>
      </trkpt>
      <trkpt lat="44.064" lon="3.60774">
        <ele>1266</ele>
        <time>2022-03-29T00:20:40Z</time>
      </trkpt>
      <trkpt lat="44.06411" lon="3.60828">
        <ele>1254</ele>
        <time>2022-03-29T00:21:00Z</time>
      </trkpt>
      <trkpt lat="44.06407" lon="3.60838">
        <ele>1249</ele>
        <time>2022-03-29T00:21:04Z</time>
      </trkpt>
      <trkpt lat="44.06402" lon="3.60858">
        <ele>1243</ele>
        <time>2022-03-29T00:21:12Z</time>
      </trkpt>
      <trkpt lat="44.06406" lon="3.60883">
        <ele>1241</ele>
        <time>2022-03-29T00:21:21Z</time>
      </trkpt>
      <trkpt lat="44.06422" lon="3.6094">
        <ele>1236</ele>
        <time>2022-03-29T00:21:43Z</time>
      </trkpt>
      <trkpt lat="44.06429" lon="3.60979">
        <ele>1227</ele>
        <time>2022-03-29T00:21:57Z</time>
      </trkpt>
      <trkpt lat="44.06445" lon="3.6101">
        <ele>1219</ele>
        <time>2022-03-29T00:22:11Z</time>
      </trkpt>
      <trkpt lat="44.06454" lon="3.61049">
        <ele>1208</ele>
        <time>2022-03-29T00:22:26Z</time>
      </trkpt>
      <trkpt lat="44.0646" lon="3.61096">
        <ele>1198</ele>
        <time>2022-03-29T00:22:43Z</time>
      </trkpt>
      <trkpt lat="44.06444" lon="3.61142">
        <ele>1190</ele>
        <time>2022-03-29T00:23:01Z</time>
      </trkpt>
      <trkpt lat="44.06441" lon="3.61183">
        <ele>1185</ele>
        <time>2022-03-29T00:23:16Z</time>
      </trkpt>
      <trkpt lat="44.06446" lon="3.61259">
        <ele>1176</ele>
        <time>2022-03-29T00:23:44Z</time>
      </trkpt>
      <trkpt lat="44.06449" lon="3.61276">
        <ele>1171</ele>
        <time>2022-03-29T00:23:50Z</time>
      </trkpt>
      <trkpt lat="44.06485" lon="3.61336">
        <ele>1162</ele>
        <time>2022-03-29T00:24:18Z</time>
      </trkpt>
      <trkpt lat="44.06624" lon="3.61503">
        <ele>1099</ele>
        <time>2022-03-29T00:25:50Z</time>
      </trkpt>
      <trkpt lat="44.06678" lon="3.61606">
        <ele>1076</ele>
        <time>2022-03-29T00:26:36Z</time>
      </trkpt>
      <trkpt lat="44.06746" lon="3.61716">
        <ele>1055</ele>
        <time>2022-03-29T00:27:28Z</time>
      </trkpt>
      <trkpt lat="44.06792" lon="3.61783">
        <ele>1030</ele>
        <time>2022-03-29T00:28:01Z</time>
      </trkpt>
      <trkpt lat="44.06811" lon="3.61856">
        <ele>1010</ele>
        <time>2022-03-29T00:28:29Z</time>
      </trkpt>
      <trkpt lat="44.06821" lon="3.61875">
        <ele>1005</ele>
        <time>2022-03-29T00:28:38Z</time>
      </trkpt>
      <trkpt lat="44.06817" lon="3.61884">
        <ele>1002</ele>
        <time>2022-03-29T00:28:42Z</time>
      </trkpt>
      <trkpt lat="44.06831" lon="3.61948">
        <ele>987</ele>
        <time>2022-03-29T00:29:06Z</time>
      </trkpt>
      <trkpt lat="44.06843" lon="3.61972">
        <ele>979</ele>
        <time>2022-03-29T00:29:16Z</time>
      </trkpt>
      <trkpt lat="44.0687" lon="3.62036">
        <ele>961</ele>
        <time>2022-03-29T00:29:43Z</time>
      </trkpt>
      <trkpt lat="44.069" lon="3.62096">
        <ele>951</ele>
        <time>2022-03-29T00:30:09Z</time>
      </trkpt>
      <trkpt lat="44.06973" lon="3.62139">
        <ele>948</ele>
        <time>2022-03-29T00:30:49Z</time>
      </trkpt>
      <trkpt lat="44.07073" lon="3.62186">
        <ele>933</ele>
        <time>2022-03-29T00:31:42Z</time>
      </trkpt>
      <trkpt lat="44.07082" lon="3.62204">
        <ele>933</ele>
        <time>2022-03-29T00:31:49Z</time>
      </trkpt>
      <trkpt lat="44.07084" lon="3.62285">
        <ele>935</ele>
        <time>2022-03-29T00:32:19Z</time>
      </trkpt>
      <trkpt lat="44.07014" lon="3.62595">
        <ele>882</ele>
        <time>2022-03-29T00:34:15Z</time>
      </trkpt>
      <trkpt lat="44.06996" lon="3.62637">
        <ele>876</ele>
        <time>2022-03-29T00:34:33Z</time>
      </trkpt>
      <trkpt lat="44.06994" lon="3.62694">
        <ele>867</ele>
        <time>2022-03-29T00:34:54Z</time>
      </trkpt>
      <trkpt lat="44.06998" lon="3.62793">
        <ele>861</ele>
        <time>2022-03-29T00:35:29Z</time>
      </trkpt>
      <trkpt lat="44.07002" lon="3.62859">
        <ele>858</ele>
        <time>2022-03-29T00:35:53Z</time>
      </trkpt>
      <trkpt lat="44.07019" lon="3.62946">
        <ele>852</ele>
        <time>2022-03-29T00:36:25Z</time>
      </trkpt>
      <trkpt lat="44.07023" lon="3.6303">
        <ele>845</ele>
        <time>2022-03-29T00:36:56Z</time>
      </trkpt>
      <trkpt lat="44.07022" lon="3.63056">
        <ele>843</ele>
        <time>2022-03-29T00:37:05Z</time>
      </trkpt>
      <trkpt lat="44.07049" lon="3.63079">
        <ele>843</ele>
        <time>2022-03-29T00:37:21Z</time>
      </trkpt>
      <trkpt lat="44.07082" lon="3.63152">
        <ele>841</ele>
        <time>2022-03-29T00:37:52Z</time>
      </trkpt>
      <trkpt lat="44.07084" lon="3.63204">
        <ele>833</ele>
        <time>2022-03-29T00:38:11Z</time>
      </trkpt>
      <trkpt lat="44.0708" lon="3.6325">
        <ele>824</ele>
        <time>2022-03-29T00:38:27Z</time>
      </trkpt>
      <trkpt lat="44.07111" lon="3.63348">
        <ele>794</ele>
        <time>2022-03-29T00:39:06Z</time>
      </trkpt>
      <trkpt lat="44.07135" lon="3.63472">
        <ele>768</ele>
        <time>2022-03-29T00:39:52Z</time>
      </trkpt>
      <trkpt lat="44.07135" lon="3.63541">
        <ele>759</ele>
        <time>2022-03-29T00:40:17Z</time>
      </trkpt>
      <trkpt lat="44.07142" lon="3.63621">
        <ele>752</ele>
        <time>2022-03-29T00:40:46Z</time>
      </trkpt>
      <trkpt lat="44.07145" lon="3.63796">
        <ele>741</ele>
        <time>2022-03-29T00:41:49Z</time>
      </trkpt>
      <trkpt lat="44.07129" lon="3.63911">
        <ele>729</ele>
        <time>2022-03-29T00:42:31Z</time>
      </trkpt>
      <trkpt lat="44.07132" lon="3.63939">
        <ele>725</ele>
        <time>2022-03-29T00:42:41Z</time>
      </trkpt>
      <trkpt lat="44.07127" lon="3.63971">
        <ele>720</ele>
        <time>2022-03-29T00:42:53Z</time>
      </trkpt>
      <trkpt lat="44.07128" lon="3.63975">
        <ele>719</ele>
        <time>2022-03-29T00:42:54Z</time>
      </trkpt>
      <trkpt lat="44.07123" lon="3.63994">
        <ele>717</ele>
        <time>2022-03-29T00:43:02Z</time>
      </trkpt>
      <trkpt lat="44.07119" lon="3.64028">
        <ele>710</ele>
        <time>2022-03-29T00:43:14Z</time>
      </trkpt>
      <trkpt lat="44.07114" lon="3.64054">
        <ele>705</ele>
        <time>2022-03-29T00:43:24Z</time>
      </trkpt>
      <trkpt lat="44.07114" lon="3.64059">
        <ele>703</ele>
        <time>2022-03-29T00:43:25Z</time>
      </trkpt>
      <trkpt lat="44.07118" lon="3.64071">
        <ele>700</ele>
        <time>2022-03-29T00:43:30Z</time>
      </trkpt>
      <trkpt lat="44.07121" lon="3.64089">
        <ele>695</ele>
        <time>2022-03-29T00:43:37Z</time>
      </trkpt>
      <trkpt lat="44.07119" lon="3.64144">
        <ele>683</ele>
        <time>2022-03-29T00:43:57Z</time>
      </trkpt>
      <trkpt lat="44.07128" lon="3.64142">
        <ele>683</ele>
        <time>2022-03-29T00:44:01Z</time>
      </trkpt>
      <trkpt lat="44.07141" lon="3.6413">
        <ele>685</ele>
        <time>2022-03-29T00:44:09Z</time>
      </trkpt>
      <trkpt lat="44.07151" lon="3.64117">
        <ele>686</ele>
        <time>2022-03-29T00:44:16Z</time>
      </trkpt>
      <trkpt lat="44.0716" lon="3.64101">
        <ele>686</ele>
        <time>2022-03-29T00:44:23Z</time>
      </trkpt>
      <trkpt lat="44.07163" lon="3.64088">
        <ele>686</ele>
        <time>2022-03-29T00:44:28Z</time>
      </trkpt>
      <trkpt lat="44.07166" lon="3.64083">
        <ele>686</ele>
        <time>2022-03-29T00:44:30Z</time>
      </trkpt>
      <trkpt lat="44.07172" lon="3.64079">
        <ele>685</ele>
        <time>2022-03-29T00:44:34Z</time>
      </trkpt>
      <trkpt lat="44.07199" lon="3.64039">
        <ele>682</ele>
        <time>2022-03-29T00:44:53Z</time>
      </trkpt>
      <trkpt lat="44.0721" lon="3.64031">
        <ele>678</ele>
        <time>2022-03-29T00:45:00Z</time>
      </trkpt>
      <trkpt lat="44.07223" lon="3.64012">
        <ele>676</ele>
        <time>2022-03-29T00:45:09Z</time>
      </trkpt>
      <trkpt lat="44.07235" lon="3.64002">
        <ele>672</ele>
        <time>2022-03-29T00:45:16Z</time>
      </trkpt>
      <trkpt lat="44.07241" lon="3.63991">
        <ele>671</ele>
        <time>2022-03-29T00:45:21Z</time>
      </trkpt>
      <trkpt lat="44.07265" lon="3.63977">
        <ele>663</ele>
        <time>2022-03-29T00:45:34Z</time>
      </trkpt>
      <trkpt lat="44.0728" lon="3.63956">
        <ele>662</ele>
        <time>2022-03-29T00:45:45Z</time>
      </trkpt>
      <trkpt lat="44.07295" lon="3.63944">
        <ele>658</ele>
        <time>2022-03-29T00:45:53Z</time>
      </trkpt>
      <trkpt lat="44.07301" lon="3.63935">
        <ele>657</ele>
        <time>2022-03-29T00:45:58Z</time>
      </trkpt>
      <trkpt lat="44.07307" lon="3.63931">
        <ele>656</ele>
        <time>2022-03-29T00:46:01Z</time>
      </trkpt>
      <trkpt lat="44.07308" lon="3.63921">
        <ele>658</ele>
        <time>2022-03-29T00:46:05Z</time>
      </trkpt>
      <trkpt lat="44.07316" lon="3.63914">
        <ele>656</ele>
        <time>2022-03-29T00:46:09Z</time>
      </trkpt>
      <trkpt lat="44.07318" lon="3.63904">
        <ele>657</ele>
        <time>2022-03-29T00:46:13Z</time>
      </trkpt>
      <trkpt lat="44.07321" lon="3.63901">
        <ele>656</ele>
        <time>2022-03-29T00:46:15Z</time>
      </trkpt>
      <trkpt lat="44.07348" lon="3.63897">
        <ele>645</ele>
        <time>2022-03-29T00:46:29Z</time>
      </trkpt>
      <trkpt lat="44.0737" lon="3.63889">
        <ele>637</ele>
        <time>2022-03-29T00:46:40Z</time>
      </trkpt>
      <trkpt lat="44.07397" lon="3.63891">
        <ele>626</ele>
        <time>2022-03-29T00:46:54Z</time>
      </trkpt>
      <trkpt lat="44.07406" lon="3.63886">
        <ele>623</ele>
        <time>2022-03-29T00:46:58Z</time>
      </trkpt>
      <trkpt lat="44.07419" lon="3.63884">
        <ele>618</ele>
        <time>2022-03-29T00:47:05Z</time>
      </trkpt>
      <trkpt lat="44.07431" lon="3.63872">
        <ele>615</ele>
        <time>2022-03-29T00:47:12Z</time>
      </trkpt>
      <trkpt lat="44.07436" lon="3.63889">
        <ele>611</ele>
        <time>2022-03-29T00:47:19Z</time>
      </trkpt>
      <trkpt lat="44.07443" lon="3.63887">
        <ele>609</ele>
        <time>2022-03-29T00:47:23Z</time>
      </trkpt>
      <trkpt lat="44.07447" lon="3.63895">
        <ele>606</ele>
        <time>2022-03-29T00:47:26Z</time>
      </trkpt>
      <trkpt lat="44.07472" lon="3.6388">
        <ele>598</ele>
        <time>2022-03-29T00:47:40Z</time>
      </trkpt>
      <trkpt lat="44.07475" lon="3.6388">
        <ele>597</ele>
        <time>2022-03-29T00:47:41Z</time>
      </trkpt>
      <trkpt lat="44.07475" lon="3.63884">
        <ele>597</ele>
        <time>2022-03-29T00:47:43Z</time>
      </trkpt>
      <trkpt lat="44.07477" lon="3.63884">
        <ele>596</ele>
        <time>2022-03-29T00:47:44Z</time>
      </trkpt>
      <trkpt lat="44.07481" lon="3.6388">
        <ele>595</ele>
        <time>2022-03-29T00:47:46Z</time>
      </trkpt>
      <trkpt lat="44.07486" lon="3.63883">
        <ele>593</ele>
        <time>2022-03-29T00:47:49Z</time>
      </trkpt>
      <trkpt lat="44.07502" lon="3.63872">
        <ele>587</ele>
        <time>2022-03-29T00:47:58Z</time>
      </trkpt>
      <trkpt lat="44.07506" lon="3.63878">
        <ele>586</ele>
        <time>2022-03-29T00:48:01Z</time>
      </trkpt>
      <trkpt lat="44.07514" lon="3.63873">
        <ele>583</ele>
        <time>2022-03-29T00:48:05Z</time>
      </trkpt>
      <trkpt lat="44.07515" lon="3.63874">
        <ele>583</ele>
        <time>2022-03-29T00:48:06Z</time>
      </trkpt>
      <trkpt lat="44.07518" lon="3.6388">
        <ele>581</ele>
        <time>2022-03-29T00:48:08Z</time>
      </trkpt>
      <trkpt lat="44.07523" lon="3.63881">
        <ele>580</ele>
        <time>2022-03-29T00:48:11Z</time>
      </trkpt>
      <trkpt lat="44.07524" lon="3.63885">
        <ele>579</ele>
        <time>2022-03-29T00:48:12Z</time>
      </trkpt>
      <trkpt lat="44.07527" lon="3.63885">
        <ele>578</ele>
        <time>2022-03-29T00:48:14Z</time>
      </trkpt>
      <trkpt lat="44.07529" lon="3.63895">
        <ele>577</ele>
        <time>2022-03-29T00:48:18Z</time>
      </trkpt>
      <trkpt lat="44.07534" lon="3.63895">
        <ele>575</ele>
        <time>2022-03-29T00:48:20Z</time>
      </trkpt>
      <trkpt lat="44.07538" lon="3.639">
        <ele>574</ele>
        <time>2022-03-29T00:48:23Z</time>
      </trkpt>
      <trkpt lat="44.07541" lon="3.63934">
        <ele>568</ele>
        <time>2022-03-29T00:48:35Z</time>
      </trkpt>
      <trkpt lat="44.07546" lon="3.63943">
        <ele>564</ele>
        <time>2022-03-29T00:48:39Z</time>
      </trkpt>
      <trkpt lat="44.07566" lon="3.63962">
        <ele>554</ele>
        <time>2022-03-29T00:48:51Z</time>
      </trkpt>
      <trkpt lat="44.07571" lon="3.63972">
        <ele>550</ele>
        <time>2022-03-29T00:48:56Z</time>
      </trkpt>
      <trkpt lat="44.07575" lon="3.63974">
        <ele>548</ele>
        <time>2022-03-29T00:48:58Z</time>
      </trkpt>
      <trkpt lat="44.07586" lon="3.63976">
        <ele>545</ele>
        <time>2022-03-29T00:49:03Z</time>
      </trkpt>
      <trkpt lat="44.07595" lon="3.63974">
        <ele>543</ele>
        <time>2022-03-29T00:49:08Z</time>
      </trkpt>
      <trkpt lat="44.07606" lon="3.63965">
        <ele>542</ele>
        <time>2022-03-29T00:49:14Z</time>
      </trkpt>
      <trkpt lat="44.07614" lon="3.63947">
        <ele>543</ele>
        <time>2022-03-29T00:49:22Z</time>
      </trkpt>
      <trkpt lat="44.07623" lon="3.63936">
        <ele>542</ele>
        <time>2022-03-29T00:49:28Z</time>
      </trkpt>
      <trkpt lat="44.07637" lon="3.63934">
        <ele>537</ele>
        <time>2022-03-29T00:49:35Z</time>
      </trkpt>
      <trkpt lat="44.07651" lon="3.63952">
        <ele>530</ele>
        <time>2022-03-29T00:49:44Z</time>
      </trkpt>
      <trkpt lat="44.07673" lon="3.63959">
        <ele>523</ele>
        <time>2022-03-29T00:49:56Z</time>
      </trkpt>
      <trkpt lat="44.07684" lon="3.63971">
        <ele>520</ele>
        <time>2022-03-29T00:50:03Z</time>
      </trkpt>
      <trkpt lat="44.07695" lon="3.63974">
        <ele>518</ele>
        <time>2022-03-29T00:50:08Z</time>
      </trkpt>
      <trkpt lat="44.07704" lon="3.63974">
        <ele>516</ele>
        <time>2022-03-29T00:50:13Z</time>
      </trkpt>
      <trkpt lat="44.07727" lon="3.63983">
        <ele>512</ele>
        <time>2022-03-29T00:50:25Z</time>
      </trkpt>
      <trkpt lat="44.07747" lon="3.63985">
        <ele>509</ele>
        <time>2022-03-29T00:50:35Z</time>
      </trkpt>
      <trkpt lat="44.07752" lon="3.63993">
        <ele>509</ele>
        <time>2022-03-29T00:50:39Z</time>
      </trkpt>
      <trkpt lat="44.0776" lon="3.64">
        <ele>508</ele>
        <time>2022-03-29T00:50:43Z</time>
      </trkpt>
      <trkpt lat="44.07765" lon="3.64016">
        <ele>503</ele>
        <time>2022-03-29T00:50:50Z</time>
      </trkpt>
      <trkpt lat="44.07771" lon="3.64019">
        <ele>501</ele>
        <time>2022-03-29T00:50:53Z</time>
      </trkpt>
      <trkpt lat="44.07776" lon="3.64025">
        <ele>499</ele>
        <time>2022-03-29T00:50:56Z</time>
      </trkpt>
      <trkpt lat="44.07786" lon="3.64031">
        <ele>496</ele>
        <time>2022-03-29T00:51:02Z</time>
      </trkpt>
      <trkpt lat="44.07796" lon="3.64035">
        <ele>493</ele>
        <time>2022-03-29T00:51:07Z</time>
      </trkpt>
      <trkpt lat="44.07807" lon="3.64036">
        <ele>491</ele>
        <time>2022-03-29T00:51:12Z</time>
      </trkpt>
      <trkpt lat="44.0781" lon="3.64039">
        <ele>490</ele>
        <time>2022-03-29T00:51:14Z</time>
      </trkpt>
      <trkpt lat="44.07819" lon="3.64037">
        <ele>489</ele>
        <time>2022-03-29T00:51:19Z</time>
      </trkpt>
      <trkpt lat="44.07823" lon="3.64041">
        <ele>488</ele>
        <time>2022-03-29T00:51:21Z</time>
      </trkpt>
      <trkpt lat="44.07822" lon="3.64046">
        <ele>487</ele>
        <time>2022-03-29T00:51:23Z</time>
      </trkpt>
      <trkpt lat="44.07825" lon="3.64051">
        <ele>487</ele>
        <time>2022-03-29T00:51:25Z</time>
      </trkpt>
      <trkpt lat="44.07825" lon="3.64057">
        <ele>486</ele>
        <time>2022-03-29T00:51:28Z</time>
      </trkpt>
      <trkpt lat="44.07826" lon="3.64058">
        <ele>486</ele>
        <time>2022-03-29T00:51:28Z</time>
      </trkpt>
      <trkpt lat="44.07821" lon="3.64082">
        <ele>484</ele>
        <time>2022-03-29T00:51:37Z</time>
      </trkpt>
      <trkpt lat="44.07827" lon="3.64085">
        <ele>483</ele>
        <time>2022-03-29T00:51:40Z</time>
      </trkpt>
      <trkpt lat="44.07828" lon="3.64091">
        <ele>481</ele>
        <time>2022-03-29T00:51:43Z</time>
      </trkpt>
      <trkpt lat="44.07834" lon="3.64092">
        <ele>480</ele>
        <time>2022-03-29T00:51:46Z</time>
      </trkpt>
      <trkpt lat="44.07835" lon="3.64095">
        <ele>478</ele>
        <time>2022-03-29T00:51:47Z</time>
      </trkpt>
      <trkpt lat="44.07836" lon="3.64104">
        <ele>475</ele>
        <time>2022-03-29T00:51:50Z</time>
      </trkpt>
      <trkpt lat="44.07841" lon="3.64101">
        <ele>473</ele>
        <time>2022-03-29T00:51:53Z</time>
      </trkpt>
      <trkpt lat="44.07843" lon="3.64104">
        <ele>471</ele>
        <time>2022-03-29T00:51:54Z</time>
      </trkpt>
      <trkpt lat="44.07847" lon="3.64102">
        <ele>469</ele>
        <time>2022-03-29T00:51:56Z</time>
      </trkpt>
      <trkpt lat="44.07849" lon="3.64105">
        <ele>467</ele>
        <time>2022-03-29T00:51:58Z</time>
      </trkpt>
      <trkpt lat="44.0785" lon="3.64105">
        <ele>467</ele>
        <time>2022-03-29T00:51:58Z</time>
      </trkpt>
      <trkpt lat="44.07847" lon="3.64117">
        <ele>465</ele>
        <time>2022-03-29T00:52:03Z</time>
      </trkpt>
      <trkpt lat="44.07847" lon="3.64134">
        <ele>460</ele>
        <time>2022-03-29T00:52:09Z</time>
      </trkpt>
      <trkpt lat="44.07849" lon="3.64133">
        <ele>459</ele>
        <time>2022-03-29T00:52:10Z</time>
      </trkpt>
      <trkpt lat="44.07852" lon="3.64146">
        <ele>454</ele>
        <time>2022-03-29T00:52:15Z</time>
      </trkpt>
      <trkpt lat="44.07854" lon="3.64146">
        <ele>453</ele>
        <time>2022-03-29T00:52:16Z</time>
      </trkpt>
      <trkpt lat="44.07854" lon="3.64148">
        <ele>453</ele>
        <time>2022-03-29T00:52:17Z</time>
      </trkpt>
      <trkpt lat="44.07858" lon="3.64151">
        <ele>450</ele>
        <time>2022-03-29T00:52:19Z</time>
      </trkpt>
      <trkpt lat="44.0786" lon="3.64155">
        <ele>448</ele>
        <time>2022-03-29T00:52:21Z</time>
      </trkpt>
      <trkpt lat="44.0786" lon="3.64171">
        <ele>443</ele>
        <time>2022-03-29T00:52:27Z</time>
      </trkpt>
      <trkpt lat="44.07871" lon="3.64177">
        <ele>436</ele>
        <time>2022-03-29T00:52:32Z</time>
      </trkpt>
      <trkpt lat="44.07871" lon="3.6419">
        <ele>432</ele>
        <time>2022-03-29T00:52:37Z</time>
      </trkpt>
      <trkpt lat="44.07878" lon="3.64194">
        <ele>428</ele>
        <time>2022-03-29T00:52:41Z</time>
      </trkpt>
      <trkpt lat="44.07882" lon="3.64193">
        <ele>427</ele>
        <time>2022-03-29T00:52:43Z</time>
      </trkpt>
      <trkpt lat="44.07884" lon="3.64199">
        <ele>425</ele>
        <time>2022-03-29T00:52:45Z</time>
      </trkpt>
      <trkpt lat="44.07884" lon="3.64206">
        <ele>423</ele>
        <time>2022-03-29T00:52:48Z</time>
      </trkpt>
      <trkpt lat="44.07882" lon="3.64216">
        <ele>420</ele>
        <time>2022-03-29T00:52:52Z</time>
      </trkpt>
      <trkpt lat="44.07879" lon="3.64219">
        <ele>420</ele>
        <time>2022-03-29T00:52:53Z</time>
      </trkpt>
      <trkpt lat="44.07885" lon="3.64226">
        <ele>416</ele>
        <time>2022-03-29T00:52:57Z</time>
      </trkpt>
      <trkpt lat="44.07889" lon="3.64226">
        <ele>415</ele>
        <time>2022-03-29T00:52:59Z</time>
      </trkpt>
      <trkpt lat="44.07899" lon="3.6422">
        <ele>415</ele>
        <time>2022-03-29T00:53:05Z</time>
      </trkpt>
      <trkpt lat="44.07908" lon="3.64209">
        <ele>415</ele>
        <time>2022-03-29T00:53:11Z</time>
      </trkpt>
      <trkpt lat="44.0791" lon="3.64205">
        <ele>416</ele>
        <time>2022-03-29T00:53:13Z</time>
      </trkpt>
      <trkpt lat="44.07914" lon="3.64205">
        <ele>414</ele>
        <time>2022-03-29T00:53:15Z</time>
      </trkpt>
      <trkpt lat="44.0792" lon="3.64197">
        <ele>413</ele>
        <time>2022-03-29T00:53:19Z</time>
      </trkpt>
      <trkpt lat="44.07923" lon="3.64204">
        <ele>411</ele>
        <time>2022-03-29T00:53:22Z</time>
      </trkpt>
      <trkpt lat="44.07927" lon="3.64206">
        <ele>408</ele>
        <time>2022-03-29T00:53:24Z</time>
      </trkpt>
      <trkpt lat="44.07928" lon="3.64214">
        <ele>406</ele>
        <time>2022-03-29T00:53:27Z</time>
      </trkpt>
      <trkpt lat="44.07932" lon="3.64214">
        <ele>404</ele>
        <time>2022-03-29T00:53:29Z</time>
      </trkpt>
      <trkpt lat="44.07941" lon="3.64207">
        <ele>401</ele>
        <time>2022-03-29T00:53:34Z</time>
      </trkpt>
      <trkpt lat="44.07942" lon="3.64208">
        <ele>400</ele>
        <time>2022-03-29T00:53:34Z</time>
      </trkpt>
      <trkpt lat="44.07943" lon="3.64211">
        <ele>399</ele>
        <time>2022-03-29T00:53:36Z</time>
      </trkpt>
      <trkpt lat="44.07952" lon="3.6421">
        <ele>395</ele>
        <time>2022-03-29T00:53:40Z</time>
      </trkpt>
      <trkpt lat="44.07958" lon="3.64195">
        <ele>394</ele>
        <time>2022-03-29T00:53:46Z</time>
      </trkpt>
      <trkpt lat="44.07962" lon="3.64195">
        <ele>392</ele>
        <time>2022-03-29T00:53:48Z</time>
      </trkpt>
      <trkpt lat="44.07965" lon="3.64199">
        <ele>390</ele>
        <time>2022-03-29T00:53:50Z</time>
      </trkpt>
      <trkpt lat="44.07969" lon="3.64215">
        <ele>386</ele>
        <time>2022-03-29T00:53:56Z</time>
      </trkpt>
      <trkpt lat="44.07972" lon="3.64214">
        <ele>385</ele>
        <time>2022-03-29T00:53:58Z</time>
      </trkpt>
      <trkpt lat="44.07977" lon="3.64198">
        <ele>383</ele>
        <time>2022-03-29T00:54:04Z</time>
      </trkpt>
      <trkpt lat="44.07978" lon="3.64198">
        <ele>383</ele>
        <time>2022-03-29T00:54:05Z</time>
      </trkpt>
      <trkpt lat="44.0798" lon="3.6421">
        <ele>381</ele>
        <time>2022-03-29T00:54:09Z</time>
      </trkpt>
      <trkpt lat="44.07982" lon="3.6421">
        <ele>380</ele>
        <time>2022-03-29T00:54:10Z</time>
      </trkpt>
      <trkpt lat="44.07985" lon="3.64195">
        <ele>380</ele>
        <time>2022-03-29T00:54:16Z</time>
      </trkpt>
      <trkpt lat="44.07986" lon="3.64193">
        <ele>379</ele>
        <time>2022-03-29T00:54:17Z</time>
      </trkpt>
      <trkpt lat="44.07988" lon="3.64194">
        <ele>378</ele>
        <time>2022-03-29T00:54:18Z</time>
      </trkpt>
      <trkpt lat="44.07989" lon="3.64202">
        <ele>377</ele>
        <time>2022-03-29T00:54:21Z</time>
      </trkpt>
      <trkpt lat="44.07993" lon="3.642">
        <ele>375</ele>
        <time>2022-03-29T00:54:23Z</time>
      </trkpt>
      <trkpt lat="44.07993" lon="3.64185">
        <ele>376</ele>
        <time>2022-03-29T00:54:28Z</time>
      </trkpt>
      <trkpt lat="44.07991" lon="3.64173">
        <ele>378</ele>
        <time>2022-03-29T00:54:33Z</time>
      </trkpt>
      <trkpt lat="44.07994" lon="3.64173">
        <ele>376</ele>
        <time>2022-03-29T00:54:34Z</time>
      </trkpt>
      <trkpt lat="44.07995" lon="3.64176">
        <ele>375</ele>
        <time>2022-03-29T00:54:35Z</time>
      </trkpt>
      <trkpt lat="44.07996" lon="3.64184">
        <ele>374</ele>
        <time>2022-03-29T00:54:38Z</time>
      </trkpt>
      <trkpt lat="44.07999" lon="3.64176">
        <ele>373</ele>
        <time>2022-03-29T00:54:41Z</time>
      </trkpt>
      <trkpt lat="44.08" lon="3.64163">
        <ele>373</ele>
        <time>2022-03-29T00:54:46Z</time>
      </trkpt>
      <trkpt lat="44.08001" lon="3.64158">
        <ele>373</ele>
        <time>2022-03-29T00:54:48Z</time>
      </trkpt>
      <trkpt lat="44.08" lon="3.64149">
        <ele>374</ele>
        <time>2022-03-29T00:54:51Z</time>
      </trkpt>
      <trkpt lat="44.08003" lon="3.64129">
        <ele>374</ele>
        <time>2022-03-29T00:54:59Z</time>
      </trkpt>
      <trkpt lat="44.0801" lon="3.64104">
        <ele>374</ele>
        <time>2022-03-29T00:55:08Z</time>
      </trkpt>
      <trkpt lat="44.08017" lon="3.64085">
        <ele>373</ele>
        <time>2022-03-29T00:55:16Z</time>
      </trkpt>
      <trkpt lat="44.08035" lon="3.64089">
        <ele>368</ele>
        <time>2022-03-29T00:55:25Z</time>
      </trkpt>
      <trkpt lat="44.08038" lon="3.64089">
        <ele>368</ele>
        <time>2022-03-29T00:55:27Z</time>
      </trkpt>
      <trkpt lat="44.08045" lon="3.6409">
        <ele>366</ele>
        <time>2022-03-29T00:55:30Z</time>
      </trkpt>
      <trkpt lat="44.08045" lon="3.64111">
        <ele>365</ele>
        <time>2022-03-29T00:55:38Z</time>
      </trkpt>
      <trkpt lat="44.08048" lon="3.64131">
        <ele>364</ele>
        <time>2022-03-29T00:55:45Z</time>
      </trkpt>
      <trkpt lat="44.08053" lon="3.64154">
        <ele>362</ele>
        <time>2022-03-29T00:55:54Z</time>
      </trkpt>
      <trkpt lat="44.08054" lon="3.64168">
        <ele>361</ele>
        <time>2022-03-29T00:55:59Z</time>
      </trkpt>
      <trkpt lat="44.08054" lon="3.64175">
        <ele>361</ele>
        <time>2022-03-29T00:56:01Z</time>
      </trkpt>
    </trkseg>
  </trk>
</gpx>